DAL9964 KSEA-RJTT
Flight info
| Callsign | DAL9964 |
|---|---|
| Flight time | N/A |
| Altitude | 32000 |
| Route | BANGR9 ARRIE J523 TOU DCT FINGS DCT KATCH DCT HMPTN DCT GRIZZ DCT CJAYY DCT 58N160W/N0467F340 DCT CHUUK DCT OBOYD DCT NATES DCT NIKLL DCT NYMPH DCT NUZAN DCT NRKEY/N0475F360 DCT NIPPI R220 NUBDA/N0460F370 R220 NANAC/N0462F380 Z22 LOSVA Y810 AKRIT Y807 POLIX |
| Aircraft | B764/H-SDE3FGHIM3RWXY/LB1 |
Departure
| Time | 2026-05-05 17:57 |
|---|---|
| Airport | Seattle–Tacoma International Airport (KSEA) |
Arrival
| Time | N/A |
|---|---|
| Airport | Tokyo Haneda International Airport (RJTT) |
| Time | Latitude | Longitude | Altitude | Speed | Heading |
|---|---|---|---|---|---|
| 2026-05-05 17:27 | 47.43837 | -122.29864 | 377 ft | 0 kts | 73° |
| 2026-05-05 17:42 | 47.43834 | -122.29876 | 377 ft | 2 kts | 73° |
| 2026-05-05 17:42 | 47.43830 | -122.29896 | 377 ft | 2 kts | 73° |
| 2026-05-05 17:43 | 47.43825 | -122.29918 | 377 ft | 2 kts | 73° |
| 2026-05-05 17:43 | 47.43821 | -122.29939 | 378 ft | 2 kts | 73° |
| 2026-05-05 17:43 | 47.43818 | -122.29953 | 378 ft | 2 kts | 73° |
| 2026-05-05 17:43 | 47.43812 | -122.29972 | 378 ft | 2 kts | 49° |
| 2026-05-05 17:44 | 47.43801 | -122.29986 | 378 ft | 2 kts | 30° |
| 2026-05-05 17:44 | 47.43792 | -122.29993 | 377 ft | 0 kts | 17° |
| 2026-05-05 17:44 | 47.43786 | -122.29994 | 377 ft | 0 kts | 15° |
| 2026-05-05 17:46 | 47.43787 | -122.29994 | 377 ft | 0 kts | 15° |
| 2026-05-05 17:46 | 47.43815 | -122.29983 | 378 ft | 7 kts | 16° |
| 2026-05-05 17:47 | 47.43831 | -122.29976 | 379 ft | 9 kts | 16° |
| 2026-05-05 17:47 | 47.43905 | -122.29953 | 380 ft | 13 kts | 358° |
| 2026-05-05 17:47 | 47.43981 | -122.30023 | 382 ft | 13 kts | 315° |
| 2026-05-05 17:47 | 47.44040 | -122.30137 | 383 ft | 14 kts | 286° |
| 2026-05-05 17:48 | 47.44018 | -122.30261 | 383 ft | 12 kts | 235° |
| 2026-05-05 17:48 | 47.43990 | -122.30385 | 382 ft | 13 kts | 269° |
| 2026-05-05 17:48 | 47.43989 | -122.30544 | 381 ft | 17 kts | 271° |
| 2026-05-05 17:48 | 47.44052 | -122.30640 | 382 ft | 13 kts | 2° |
| 2026-05-05 17:49 | 47.44146 | -122.30636 | 385 ft | 13 kts | 1° |
| 2026-05-05 17:49 | 47.44247 | -122.30634 | 387 ft | 15 kts | 0° |
| 2026-05-05 17:49 | 47.44358 | -122.30634 | 391 ft | 16 kts | 0° |
| 2026-05-05 17:49 | 47.44470 | -122.30633 | 395 ft | 16 kts | 0° |
| 2026-05-05 17:50 | 47.44589 | -122.30630 | 397 ft | 17 kts | 1° |
| 2026-05-05 17:50 | 47.44714 | -122.30628 | 401 ft | 18 kts | 1° |
| 2026-05-05 17:50 | 47.44843 | -122.30627 | 406 ft | 18 kts | 0° |
| 2026-05-05 17:50 | 47.44971 | -122.30627 | 411 ft | 18 kts | 360° |
| 2026-05-05 17:51 | 47.45097 | -122.30628 | 418 ft | 17 kts | 360° |
| 2026-05-05 17:51 | 47.45211 | -122.30624 | 424 ft | 16 kts | 2° |
| 2026-05-05 17:51 | 47.45323 | -122.30621 | 429 ft | 15 kts | 1° |
| 2026-05-05 17:51 | 47.45431 | -122.30619 | 433 ft | 15 kts | 1° |
| 2026-05-05 17:52 | 47.45538 | -122.30620 | 437 ft | 15 kts | 0° |
| 2026-05-05 17:52 | 47.45647 | -122.30621 | 442 ft | 15 kts | 0° |
| 2026-05-05 17:52 | 47.45761 | -122.30618 | 442 ft | 18 kts | 1° |
| 2026-05-05 17:52 | 47.45893 | -122.30618 | 444 ft | 19 kts | 0° |
| 2026-05-05 17:53 | 47.46042 | -122.30618 | 443 ft | 23 kts | 0° |
| 2026-05-05 17:53 | 47.46218 | -122.30616 | 434 ft | 23 kts | 2° |
| 2026-05-05 17:53 | 47.46340 | -122.30619 | 424 ft | 12 kts | 345° |
| 2026-05-05 17:53 | 47.46375 | -122.30734 | 415 ft | 9 kts | 268° |
| 2026-05-05 17:54 | 47.46370 | -122.30762 | 413 ft | 0 kts | 234° |
| 2026-05-05 17:54 | 47.46361 | -122.30774 | 413 ft | 1 kts | 207° |
| 2026-05-05 17:54 | 47.46337 | -122.30776 | 415 ft | 3 kts | 177° |
| 2026-05-05 17:54 | 47.46329 | -122.30776 | 416 ft | 0 kts | 181° |
| 2026-05-05 17:55 | 47.46320 | -122.30776 | 416 ft | 6 kts | 181° |
| 2026-05-05 17:55 | 47.46151 | -122.30777 | 429 ft | 44 kts | 180° |
| 2026-05-05 17:55 | 47.45692 | -122.30781 | 438 ft | 87 kts | 180° |
| 2026-05-05 17:56 | 47.44931 | -122.30787 | 409 ft | 130 kts | 180° |
| 2026-05-05 17:56 | 47.43890 | -122.30798 | 373 ft | 169 kts | 180° |
| 2026-05-05 17:56 | 47.42620 | -122.30823 | 550 ft | 187 kts | 183° |
| 2026-05-05 17:56 | 47.41304 | -122.30862 | 935 ft | 197 kts | 181° |
| 2026-05-05 17:57 | 47.39894 | -122.30855 | 1328 ft | 209 kts | 181° |
| 2026-05-05 17:57 | 47.38396 | -122.30898 | 1497 ft | 224 kts | 182° |
| 2026-05-05 17:57 | 47.36780 | -122.30963 | 1555 ft | 243 kts | 182° |
| 2026-05-05 17:57 | 47.35019 | -122.31042 | 1747 ft | 258 kts | 186° |
| 2026-05-05 17:58 | 47.33319 | -122.31813 | 2202 ft | 260 kts | 215° |
| 2026-05-05 17:58 | 47.32097 | -122.33727 | 2668 ft | 262 kts | 245° |
| 2026-05-05 17:58 | 47.31591 | -122.36270 | 3175 ft | 262 kts | 261° |
| 2026-05-05 17:58 | 47.31265 | -122.38922 | 3672 ft | 264 kts | 261° |
| 2026-05-05 17:59 | 47.30945 | -122.41608 | 4163 ft | 267 kts | 264° |
| 2026-05-05 17:59 | 47.31077 | -122.44291 | 4595 ft | 268 kts | 292° |
| 2026-05-05 17:59 | 47.31869 | -122.46749 | 5113 ft | 267 kts | 298° |
| 2026-05-05 17:59 | 47.32701 | -122.49169 | 5607 ft | 269 kts | 299° |
| 2026-05-05 18:00 | 47.33672 | -122.51565 | 6064 ft | 270 kts | 315° |
| 2026-05-05 18:00 | 47.35033 | -122.53436 | 6573 ft | 269 kts | 320° |
| 2026-05-05 18:00 | 47.36417 | -122.55271 | 7071 ft | 271 kts | 320° |
| 2026-05-05 18:00 | 47.37826 | -122.57114 | 7491 ft | 275 kts | 320° |
| 2026-05-05 18:01 | 47.39263 | -122.58981 | 8000 ft | 276 kts | 320° |
| 2026-05-05 18:01 | 47.40714 | -122.60855 | 8457 ft | 279 kts | 320° |
| 2026-05-05 18:01 | 47.42186 | -122.62755 | 8937 ft | 281 kts | 320° |
| 2026-05-05 18:01 | 47.43647 | -122.64636 | 9363 ft | 284 kts | 320° |
| 2026-05-05 18:02 | 47.45147 | -122.66569 | 9815 ft | 287 kts | 320° |
| 2026-05-05 18:02 | 47.46651 | -122.68510 | 10266 ft | 290 kts | 320° |
| 2026-05-05 18:02 | 47.48212 | -122.70521 | 10298 ft | 309 kts | 320° |
| 2026-05-05 18:02 | 47.49873 | -122.72662 | 10345 ft | 329 kts | 320° |
| 2026-05-05 18:03 | 47.51646 | -122.74952 | 10407 ft | 349 kts | 320° |
| 2026-05-05 18:03 | 47.53493 | -122.77340 | 10899 ft | 355 kts | 320° |
| 2026-05-05 18:03 | 47.55350 | -122.79745 | 11524 ft | 357 kts | 320° |
| 2026-05-05 18:03 | 47.57213 | -122.82159 | 12087 ft | 361 kts | 320° |
| 2026-05-05 18:04 | 47.59094 | -122.84598 | 12652 ft | 363 kts | 320° |
| 2026-05-05 18:04 | 47.60999 | -122.87071 | 13203 ft | 365 kts | 321° |
| 2026-05-05 18:04 | 47.62907 | -122.89549 | 13771 ft | 368 kts | 321° |
| 2026-05-05 18:04 | 47.64695 | -122.92316 | 14298 ft | 375 kts | 308° |
| 2026-05-05 18:05 | 47.66065 | -122.95553 | 14883 ft | 378 kts | 304° |
| 2026-05-05 18:05 | 47.67482 | -122.98833 | 15428 ft | 381 kts | 306° |
| 2026-05-05 18:05 | 47.68902 | -123.02167 | 15984 ft | 383 kts | 306° |
| 2026-05-05 18:05 | 47.70326 | -123.05496 | 16533 ft | 386 kts | 306° |
| 2026-05-05 18:06 | 47.71763 | -123.08888 | 17059 ft | 389 kts | 306° |
| 2026-05-05 18:06 | 47.72238 | -123.10009 | 17251 ft | 389 kts | 306° |
| 2026-05-05 18:06 | 47.74649 | -123.15717 | 18124 ft | 394 kts | 306° |
| 2026-05-05 18:06 | 47.76095 | -123.19150 | 18695 ft | 396 kts | 306° |
| 2026-05-05 18:07 | 47.77537 | -123.22577 | 19194 ft | 399 kts | 306° |
| 2026-05-05 18:07 | 47.79018 | -123.26101 | 19785 ft | 400 kts | 306° |
| 2026-05-05 18:07 | 47.80481 | -123.29586 | 20257 ft | 403 kts | 306° |
| 2026-05-05 18:07 | 47.81961 | -123.33118 | 20738 ft | 406 kts | 306° |
| 2026-05-05 18:08 | 47.83469 | -123.36724 | 21208 ft | 409 kts | 306° |
| 2026-05-05 18:08 | 47.84951 | -123.40270 | 21664 ft | 412 kts | 306° |
| 2026-05-05 18:08 | 47.86461 | -123.43890 | 22138 ft | 413 kts | 306° |
| 2026-05-05 18:08 | 47.87973 | -123.47528 | 22561 ft | 416 kts | 304° |
| 2026-05-05 18:09 | 47.89381 | -123.51284 | 23005 ft | 418 kts | 302° |
| 2026-05-05 18:09 | 47.90794 | -123.55076 | 23402 ft | 420 kts | 303° |
| 2026-05-05 18:09 | 47.92209 | -123.58896 | 23742 ft | 423 kts | 303° |
| 2026-05-05 18:09 | 47.93633 | -123.62732 | 24203 ft | 425 kts | 302° |
| 2026-05-05 18:10 | 47.95067 | -123.66605 | 24663 ft | 428 kts | 302° |
| 2026-05-05 18:10 | 47.96495 | -123.70464 | 25096 ft | 431 kts | 302° |
| 2026-05-05 18:10 | 47.97946 | -123.74394 | 25504 ft | 433 kts | 302° |
| 2026-05-05 18:10 | 47.99400 | -123.78336 | 25886 ft | 436 kts | 302° |
| 2026-05-05 18:11 | 48.00846 | -123.82263 | 26252 ft | 439 kts | 302° |
| 2026-05-05 18:11 | 48.02317 | -123.86265 | 26597 ft | 441 kts | 302° |
| 2026-05-05 18:11 | 48.03798 | -123.90298 | 26933 ft | 444 kts | 301° |
| 2026-05-05 18:11 | 48.05296 | -123.94381 | 27289 ft | 446 kts | 301° |
| 2026-05-05 18:12 | 48.06770 | -123.98409 | 27598 ft | 448 kts | 301° |
| 2026-05-05 18:12 | 48.08275 | -124.02525 | 27906 ft | 450 kts | 301° |
| 2026-05-05 18:12 | 48.09758 | -124.06592 | 28174 ft | 452 kts | 301° |
| 2026-05-05 18:12 | 48.11270 | -124.10741 | 28478 ft | 454 kts | 301° |
| 2026-05-05 18:13 | 48.12758 | -124.14835 | 28805 ft | 454 kts | 301° |
| 2026-05-05 18:13 | 48.14269 | -124.18993 | 29017 ft | 457 kts | 301° |
| 2026-05-05 18:13 | 48.15787 | -124.23178 | 29281 ft | 458 kts | 301° |
| 2026-05-05 18:13 | 48.17308 | -124.27377 | 29477 ft | 460 kts | 301° |
| 2026-05-05 18:14 | 48.18819 | -124.31558 | 29694 ft | 462 kts | 301° |
| 2026-05-05 18:14 | 48.20356 | -124.35819 | 29905 ft | 463 kts | 301° |
| 2026-05-05 18:14 | 48.21868 | -124.40014 | 30100 ft | 464 kts | 301° |
| 2026-05-05 18:14 | 48.23411 | -124.44303 | 30279 ft | 466 kts | 301° |
| 2026-05-05 18:15 | 48.24945 | -124.48574 | 30493 ft | 466 kts | 301° |
| 2026-05-05 18:15 | 48.26461 | -124.52804 | 30677 ft | 467 kts | 301° |
| 2026-05-05 18:15 | 48.27998 | -124.57098 | 30953 ft | 466 kts | 301° |
| 2026-05-05 18:15 | 48.29618 | -124.61241 | 31206 ft | 462 kts | 308° |
| 2026-05-05 18:16 | 48.31640 | -124.64960 | 31385 ft | 459 kts | 317° |
| 2026-05-05 18:16 | 48.33941 | -124.68269 | 31619 ft | 457 kts | 318° |
| 2026-05-05 18:16 | 48.36216 | -124.71536 | 31824 ft | 457 kts | 318° |
| 2026-05-05 18:16 | 48.38517 | -124.74827 | 32021 ft | 452 kts | 318° |
| 2026-05-05 18:17 | 48.40753 | -124.78030 | 32008 ft | 449 kts | 318° |
| 2026-05-05 18:17 | 48.45282 | -124.84524 | 32026 ft | 450 kts | 317° |
| 2026-05-05 18:18 | 48.49795 | -124.91009 | 32038 ft | 451 kts | 317° |
| 2026-05-05 18:18 | 48.54314 | -124.97519 | 32028 ft | 452 kts | 317° |
| 2026-05-05 18:19 | 48.58870 | -125.04099 | 32030 ft | 453 kts | 317° |
| 2026-05-05 18:19 | 48.63384 | -125.10635 | 32029 ft | 454 kts | 317° |
| 2026-05-05 18:20 | 48.67931 | -125.17236 | 32030 ft | 454 kts | 317° |
| 2026-05-05 18:20 | 48.72478 | -125.23854 | 32020 ft | 455 kts | 317° |
| 2026-05-05 18:21 | 48.77004 | -125.30460 | 32028 ft | 455 kts | 317° |
| 2026-05-05 18:21 | 48.81548 | -125.37109 | 32030 ft | 455 kts | 317° |
| 2026-05-05 18:22 | 48.86078 | -125.43755 | 32030 ft | 455 kts | 317° |
| 2026-05-05 18:22 | 48.90599 | -125.50407 | 32019 ft | 454 kts | 317° |
| 2026-05-05 18:23 | 48.95142 | -125.57106 | 32027 ft | 454 kts | 317° |
| 2026-05-05 18:23 | 48.99652 | -125.63776 | 32032 ft | 454 kts | 317° |
| 2026-05-05 18:24 | 49.04170 | -125.70476 | 32044 ft | 455 kts | 316° |
| 2026-05-05 18:24 | 49.08684 | -125.77190 | 32046 ft | 455 kts | 316° |
| 2026-05-05 18:25 | 49.13199 | -125.83919 | 32053 ft | 456 kts | 316° |
| 2026-05-05 18:25 | 49.17698 | -125.90644 | 32046 ft | 456 kts | 316° |
| 2026-05-05 18:26 | 49.22226 | -125.97432 | 32041 ft | 456 kts | 316° |
| 2026-05-05 18:26 | 49.26737 | -126.04211 | 32033 ft | 457 kts | 316° |
| 2026-05-05 18:27 | 49.31270 | -126.11043 | 32027 ft | 457 kts | 316° |
| 2026-05-05 18:27 | 49.35766 | -126.17837 | 32027 ft | 457 kts | 316° |
| 2026-05-05 18:28 | 49.42532 | -126.28097 | 32012 ft | 457 kts | 316° |
| 2026-05-05 18:28 | 49.47038 | -126.34951 | 32010 ft | 457 kts | 315° |
| 2026-05-05 18:29 | 49.51532 | -126.41808 | 32012 ft | 458 kts | 315° |
| 2026-05-05 18:29 | 49.56039 | -126.48704 | 32004 ft | 458 kts | 315° |
| 2026-05-05 18:30 | 49.60540 | -126.55608 | 32003 ft | 458 kts | 315° |
| 2026-05-05 18:30 | 49.65058 | -126.62559 | 32001 ft | 459 kts | 315° |
| 2026-05-05 18:31 | 49.69545 | -126.69481 | 32001 ft | 459 kts | 315° |
| 2026-05-05 18:31 | 49.74063 | -126.76468 | 32000 ft | 459 kts | 314° |
| 2026-05-05 18:32 | 49.78559 | -126.83443 | 31998 ft | 459 kts | 314° |
| 2026-05-05 18:32 | 49.83051 | -126.90430 | 31994 ft | 460 kts | 314° |
| 2026-05-05 18:33 | 49.87539 | -126.97430 | 31996 ft | 461 kts | 314° |
| 2026-05-05 18:33 | 49.92044 | -127.04478 | 31999 ft | 461 kts | 314° |
| 2026-05-05 18:34 | 49.96525 | -127.11508 | 31995 ft | 460 kts | 314° |
| 2026-05-05 18:34 | 50.00991 | -127.18533 | 31995 ft | 460 kts | 314° |
| 2026-05-05 18:35 | 50.05496 | -127.25640 | 31997 ft | 461 kts | 314° |
| 2026-05-05 18:35 | 50.09949 | -127.32684 | 32005 ft | 462 kts | 314° |
| 2026-05-05 18:36 | 50.14445 | -127.39818 | 32009 ft | 462 kts | 314° |
| 2026-05-05 18:36 | 50.18948 | -127.46982 | 32018 ft | 462 kts | 314° |
| 2026-05-05 18:37 | 50.23410 | -127.54101 | 32033 ft | 462 kts | 313° |
| 2026-05-05 18:37 | 50.27583 | -127.61699 | 32024 ft | 462 kts | 309° |
| 2026-05-05 18:38 | 50.31638 | -127.69441 | 32015 ft | 462 kts | 308° |
| 2026-05-05 18:38 | 50.35681 | -127.77222 | 32015 ft | 462 kts | 308° |
| 2026-05-05 18:39 | 50.39707 | -127.85008 | 32016 ft | 462 kts | 307° |
| 2026-05-05 18:39 | 50.43717 | -127.92791 | 32022 ft | 462 kts | 307° |
| 2026-05-05 18:40 | 50.47744 | -128.00633 | 32016 ft | 463 kts | 307° |
| 2026-05-05 18:40 | 50.51748 | -128.08455 | 32019 ft | 463 kts | 307° |
| 2026-05-05 18:41 | 50.55792 | -128.16380 | 32017 ft | 464 kts | 307° |
| 2026-05-05 18:41 | 50.59810 | -128.24274 | 32014 ft | 464 kts | 307° |
| 2026-05-05 18:42 | 50.63813 | -128.32165 | 32016 ft | 464 kts | 307° |
| 2026-05-05 18:42 | 50.67806 | -128.40063 | 32014 ft | 464 kts | 307° |
| 2026-05-05 18:43 | 50.71815 | -128.48013 | 32020 ft | 464 kts | 307° |
| 2026-05-05 18:43 | 50.75829 | -128.56000 | 32022 ft | 465 kts | 307° |
| 2026-05-05 18:44 | 50.79827 | -128.63979 | 32023 ft | 465 kts | 307° |
| 2026-05-05 18:44 | 50.83823 | -128.71977 | 32028 ft | 466 kts | 306° |
| 2026-05-05 18:45 | 50.87815 | -128.79993 | 32026 ft | 467 kts | 306° |
| 2026-05-05 18:45 | 50.91800 | -128.88019 | 32028 ft | 466 kts | 306° |
| 2026-05-05 18:46 | 50.95808 | -128.96118 | 32027 ft | 466 kts | 306° |
| 2026-05-05 18:46 | 50.99784 | -129.04176 | 32031 ft | 467 kts | 306° |
| 2026-05-05 18:47 | 51.03761 | -129.12260 | 32028 ft | 467 kts | 305° |
| 2026-05-05 18:47 | 51.07741 | -129.20378 | 32027 ft | 467 kts | 305° |
| 2026-05-05 18:48 | 51.11724 | -129.28526 | 32023 ft | 467 kts | 305° |
| 2026-05-05 18:48 | 51.15692 | -129.36670 | 32022 ft | 468 kts | 305° |
| 2026-05-05 18:49 | 51.19653 | -129.44824 | 32019 ft | 469 kts | 305° |
| 2026-05-05 18:49 | 51.23628 | -129.53033 | 32022 ft | 469 kts | 305° |
| 2026-05-05 18:50 | 51.27601 | -129.61264 | 32022 ft | 468 kts | 305° |
| 2026-05-05 18:50 | 51.31556 | -129.69484 | 32022 ft | 468 kts | 304° |
| 2026-05-05 18:51 | 51.35503 | -129.77714 | 32017 ft | 469 kts | 304° |
| 2026-05-05 18:51 | 51.39438 | -129.85945 | 32021 ft | 469 kts | 304° |
| 2026-05-05 18:52 | 51.43386 | -129.94229 | 32021 ft | 470 kts | 303° |
| 2026-05-05 18:52 | 51.47342 | -130.02556 | 32017 ft | 470 kts | 303° |
| 2026-05-05 18:53 | 51.51270 | -130.10852 | 32024 ft | 469 kts | 303° |
| 2026-05-05 18:53 | 51.55195 | -130.19168 | 32023 ft | 470 kts | 303° |
| 2026-05-05 18:54 | 51.59117 | -130.27506 | 32029 ft | 470 kts | 303° |
| 2026-05-05 18:54 | 51.63044 | -130.35879 | 32026 ft | 470 kts | 303° |
| 2026-05-05 18:55 | 51.66956 | -130.44249 | 32027 ft | 470 kts | 303° |
| 2026-05-05 18:55 | 51.70885 | -130.52684 | 32035 ft | 471 kts | 303° |
| 2026-05-05 18:56 | 51.74801 | -130.61116 | 32038 ft | 472 kts | 303° |
| 2026-05-05 18:56 | 51.78709 | -130.69557 | 32040 ft | 472 kts | 302° |
| 2026-05-05 18:57 | 51.82622 | -130.78040 | 32032 ft | 470 kts | 302° |
| 2026-05-05 18:57 | 51.86494 | -130.86462 | 32031 ft | 471 kts | 302° |
| 2026-05-05 18:58 | 51.90393 | -130.94968 | 32038 ft | 471 kts | 302° |
| 2026-05-05 18:58 | 51.94284 | -131.03485 | 32039 ft | 471 kts | 301° |
| 2026-05-05 18:59 | 51.98152 | -131.11981 | 32039 ft | 472 kts | 301° |
| 2026-05-05 18:59 | 52.02031 | -131.20531 | 32042 ft | 472 kts | 301° |
| 2026-05-05 19:00 | 52.05902 | -131.29091 | 32038 ft | 472 kts | 301° |
| 2026-05-05 19:00 | 52.09754 | -131.37634 | 32046 ft | 473 kts | 301° |
| 2026-05-05 19:01 | 52.13621 | -131.46243 | 32040 ft | 472 kts | 301° |
| 2026-05-05 19:01 | 52.17468 | -131.54833 | 32042 ft | 473 kts | 301° |
| 2026-05-05 19:02 | 52.21324 | -131.63475 | 32046 ft | 473 kts | 301° |
| 2026-05-05 19:02 | 52.25190 | -131.72166 | 32048 ft | 473 kts | 300° |
| 2026-05-05 19:03 | 52.29027 | -131.80824 | 32050 ft | 473 kts | 300° |
| 2026-05-05 19:03 | 52.32863 | -131.89508 | 32054 ft | 474 kts | 300° |
| 2026-05-05 19:04 | 52.36686 | -131.98192 | 32052 ft | 474 kts | 300° |
| 2026-05-05 19:04 | 52.40530 | -132.06953 | 32054 ft | 475 kts | 300° |
| 2026-05-05 19:05 | 52.44364 | -132.15720 | 32065 ft | 474 kts | 299° |
| 2026-05-05 19:05 | 52.48185 | -132.24490 | 32064 ft | 474 kts | 299° |
| 2026-05-05 19:06 | 52.51982 | -132.33234 | 32067 ft | 474 kts | 299° |
| 2026-05-05 19:06 | 52.55774 | -132.41995 | 32077 ft | 474 kts | 299° |
| 2026-05-05 19:07 | 52.58963 | -132.49387 | 32067 ft | 474 kts | 299° |
| 2026-05-05 19:07 | 52.63377 | -132.59654 | 32090 ft | 474 kts | 299° |
| 2026-05-05 19:08 | 52.67160 | -132.68486 | 32108 ft | 474 kts | 298° |
| 2026-05-05 19:08 | 52.70954 | -132.77376 | 32117 ft | 474 kts | 298° |
| 2026-05-05 19:09 | 52.74723 | -132.86238 | 32107 ft | 475 kts | 298° |
| 2026-05-05 19:09 | 52.78478 | -132.95096 | 32114 ft | 475 kts | 298° |
| 2026-05-05 19:10 | 52.82244 | -133.04013 | 32118 ft | 475 kts | 298° |
| 2026-05-05 19:10 | 52.85997 | -133.12929 | 32121 ft | 474 kts | 297° |
| 2026-05-05 19:11 | 52.89750 | -133.21878 | 32124 ft | 475 kts | 297° |
| 2026-05-05 19:11 | 52.93502 | -133.30855 | 32125 ft | 475 kts | 297° |
| 2026-05-05 19:12 | 52.97239 | -133.39827 | 32122 ft | 475 kts | 297° |
| 2026-05-05 19:12 | 53.00992 | -133.48871 | 32129 ft | 476 kts | 297° |
| 2026-05-05 19:13 | 53.04704 | -133.57846 | 32124 ft | 475 kts | 297° |
| 2026-05-05 19:13 | 53.08448 | -133.66934 | 32131 ft | 476 kts | 296° |
| 2026-05-05 19:14 | 53.12156 | -133.75963 | 32116 ft | 474 kts | 296° |
| 2026-05-05 19:14 | 53.15848 | -133.84988 | 32128 ft | 474 kts | 296° |
| 2026-05-05 19:15 | 53.19524 | -133.94006 | 32127 ft | 474 kts | 296° |
| 2026-05-05 19:15 | 53.23224 | -134.03117 | 32129 ft | 475 kts | 296° |
| 2026-05-05 19:16 | 53.26893 | -134.12181 | 32133 ft | 475 kts | 296° |
| 2026-05-05 19:16 | 53.30565 | -134.21287 | 32133 ft | 476 kts | 296° |
| 2026-05-05 19:17 | 53.34259 | -134.30482 | 32131 ft | 476 kts | 296° |
| 2026-05-05 19:17 | 53.37931 | -134.39648 | 32133 ft | 475 kts | 296° |
| 2026-05-05 19:18 | 53.41566 | -134.48764 | 32136 ft | 475 kts | 296° |
| 2026-05-05 19:18 | 53.45230 | -134.57982 | 32134 ft | 476 kts | 296° |
| 2026-05-05 19:19 | 53.48866 | -134.67163 | 32142 ft | 475 kts | 295° |
| 2026-05-05 19:19 | 53.52508 | -134.76392 | 32142 ft | 474 kts | 295° |
| 2026-05-05 19:20 | 53.56117 | -134.85574 | 32155 ft | 475 kts | 295° |
| 2026-05-05 19:20 | 53.59736 | -134.94817 | 32153 ft | 476 kts | 295° |
| 2026-05-05 19:21 | 53.63359 | -135.04100 | 32154 ft | 476 kts | 295° |
| 2026-05-05 19:21 | 53.66988 | -135.13429 | 32156 ft | 476 kts | 295° |
| 2026-05-05 19:22 | 53.70601 | -135.22759 | 32142 ft | 476 kts | 295° |
| 2026-05-05 19:22 | 53.74191 | -135.32060 | 32148 ft | 476 kts | 295° |
| 2026-05-05 19:23 | 53.77774 | -135.41382 | 32149 ft | 477 kts | 295° |
| 2026-05-05 19:23 | 53.81369 | -135.50766 | 32146 ft | 477 kts | 295° |
| 2026-05-05 19:24 | 53.84963 | -135.60181 | 32145 ft | 478 kts | 295° |
| 2026-05-05 19:24 | 53.88539 | -135.69588 | 32149 ft | 477 kts | 294° |
| 2026-05-05 19:25 | 53.92108 | -135.79010 | 32148 ft | 475 kts | 294° |
| 2026-05-05 19:25 | 53.95660 | -135.88425 | 32140 ft | 476 kts | 294° |
| 2026-05-05 19:26 | 53.99191 | -135.97829 | 32136 ft | 476 kts | 293° |
| 2026-05-05 19:26 | 54.02417 | -136.07556 | 32143 ft | 472 kts | 291° |
| 2026-05-05 19:27 | 54.05574 | -136.17290 | 32140 ft | 472 kts | 291° |
| 2026-05-05 19:27 | 54.08703 | -136.27016 | 32133 ft | 473 kts | 291° |
| 2026-05-05 19:28 | 54.11847 | -136.36841 | 32120 ft | 472 kts | 291° |
| 2026-05-05 19:28 | 54.14967 | -136.46640 | 32115 ft | 473 kts | 291° |
| 2026-05-05 19:29 | 54.18095 | -136.56505 | 32124 ft | 474 kts | 291° |
| 2026-05-05 19:29 | 54.21196 | -136.66322 | 32118 ft | 473 kts | 290° |
| 2026-05-05 19:30 | 54.24282 | -136.76135 | 32128 ft | 471 kts | 290° |
| 2026-05-05 19:30 | 54.27374 | -136.86011 | 32120 ft | 472 kts | 290° |
| 2026-05-05 19:31 | 54.30438 | -136.95836 | 32109 ft | 473 kts | 290° |
| 2026-05-05 19:31 | 54.33511 | -137.05728 | 32114 ft | 472 kts | 290° |
| 2026-05-05 19:32 | 54.36591 | -137.15686 | 32113 ft | 473 kts | 290° |
| 2026-05-05 19:32 | 54.39636 | -137.25571 | 32114 ft | 471 kts | 290° |
| 2026-05-05 19:33 | 54.42678 | -137.35489 | 32118 ft | 472 kts | 290° |
| 2026-05-05 19:33 | 54.45710 | -137.45413 | 32111 ft | 472 kts | 290° |
| 2026-05-05 19:34 | 54.48751 | -137.55409 | 32110 ft | 472 kts | 290° |
| 2026-05-05 19:35 | 54.53265 | -137.70323 | 32117 ft | 472 kts | 289° |
| 2026-05-05 19:35 | 54.56276 | -137.80324 | 32115 ft | 470 kts | 289° |
| 2026-05-05 19:36 | 54.59257 | -137.90271 | 32109 ft | 471 kts | 289° |
| 2026-05-05 19:36 | 54.62242 | -138.00269 | 32110 ft | 469 kts | 289° |
| 2026-05-05 19:37 | 54.65198 | -138.10214 | 32113 ft | 470 kts | 289° |
| 2026-05-05 19:37 | 54.68159 | -138.20215 | 32105 ft | 469 kts | 289° |
| 2026-05-05 19:38 | 54.71113 | -138.30237 | 32107 ft | 469 kts | 289° |
| 2026-05-05 19:38 | 54.74059 | -138.40274 | 32106 ft | 470 kts | 289° |
| 2026-05-05 19:39 | 54.76993 | -138.50311 | 32104 ft | 468 kts | 289° |
| 2026-05-05 19:39 | 54.79912 | -138.60347 | 32111 ft | 469 kts | 289° |
| 2026-05-05 19:40 | 54.82827 | -138.70407 | 32106 ft | 469 kts | 288° |
| 2026-05-05 19:40 | 54.85726 | -138.80450 | 32106 ft | 468 kts | 288° |
| 2026-05-05 19:41 | 54.88611 | -138.90491 | 32100 ft | 468 kts | 288° |
| 2026-05-05 19:41 | 54.91492 | -139.00568 | 32098 ft | 468 kts | 288° |
| 2026-05-05 19:42 | 54.94393 | -139.10753 | 32104 ft | 469 kts | 288° |
| 2026-05-05 19:42 | 54.97265 | -139.20883 | 32101 ft | 469 kts | 288° |
| 2026-05-05 19:43 | 55.00127 | -139.31018 | 32098 ft | 469 kts | 288° |
| 2026-05-05 19:43 | 55.02982 | -139.41177 | 32096 ft | 470 kts | 288° |
| 2026-05-05 19:44 | 55.05849 | -139.51424 | 32099 ft | 471 kts | 288° |
| 2026-05-05 19:44 | 55.08704 | -139.61668 | 32089 ft | 470 kts | 288° |
| 2026-05-05 19:45 | 55.11538 | -139.71886 | 32083 ft | 470 kts | 287° |
| 2026-05-05 19:45 | 55.14360 | -139.82104 | 32086 ft | 469 kts | 288° |
| 2026-05-05 19:46 | 55.17176 | -139.92345 | 32074 ft | 469 kts | 287° |
| 2026-05-05 19:46 | 55.19978 | -140.02583 | 32076 ft | 469 kts | 287° |
| 2026-05-05 19:47 | 55.22766 | -140.12814 | 32081 ft | 470 kts | 287° |
| 2026-05-05 19:47 | 55.25561 | -140.23120 | 32073 ft | 469 kts | 287° |
| 2026-05-05 19:48 | 55.28344 | -140.33424 | 32070 ft | 469 kts | 287° |
| 2026-05-05 19:48 | 55.31110 | -140.43716 | 32069 ft | 470 kts | 287° |
| 2026-05-05 19:49 | 55.33883 | -140.54077 | 32065 ft | 469 kts | 288° |
| 2026-05-05 19:49 | 55.36617 | -140.64336 | 32057 ft | 467 kts | 287° |
| 2026-05-05 19:50 | 55.39356 | -140.74669 | 32048 ft | 467 kts | 287° |
| 2026-05-05 19:50 | 55.42079 | -140.84987 | 32056 ft | 468 kts | 287° |
| 2026-05-05 19:51 | 55.44810 | -140.95377 | 32049 ft | 466 kts | 287° |
| 2026-05-05 19:51 | 55.47488 | -141.05611 | 32050 ft | 464 kts | 287° |
| 2026-05-05 19:52 | 55.50183 | -141.15971 | 32052 ft | 466 kts | 287° |
| 2026-05-05 19:52 | 55.52853 | -141.26270 | 32042 ft | 466 kts | 287° |
| 2026-05-05 19:53 | 55.55094 | -141.34952 | 32041 ft | 465 kts | 287° |
| 2026-05-05 19:53 | 55.58200 | -141.47044 | 32041 ft | 466 kts | 287° |
| 2026-05-05 19:54 | 55.60851 | -141.57414 | 32037 ft | 465 kts | 287° |
| 2026-05-05 19:54 | 55.63486 | -141.67772 | 32032 ft | 465 kts | 286° |
| 2026-05-05 19:55 | 55.66128 | -141.78203 | 32031 ft | 464 kts | 286° |
| 2026-05-05 19:55 | 55.68729 | -141.88522 | 32024 ft | 463 kts | 286° |
| 2026-05-05 19:56 | 55.71338 | -141.98929 | 32018 ft | 464 kts | 286° |
| 2026-05-05 19:56 | 55.73951 | -142.09392 | 32008 ft | 463 kts | 286° |
| 2026-05-05 19:57 | 55.76531 | -142.19775 | 32005 ft | 463 kts | 286° |
| 2026-05-05 19:57 | 55.79122 | -142.30249 | 31999 ft | 463 kts | 286° |
| 2026-05-05 19:58 | 55.81685 | -142.40665 | 32000 ft | 464 kts | 286° |
| 2026-05-05 19:58 | 55.84255 | -142.51150 | 32000 ft | 462 kts | 286° |
| 2026-05-05 19:59 | 55.86791 | -142.61554 | 31998 ft | 463 kts | 286° |
| 2026-05-05 19:59 | 55.88908 | -142.70279 | 31999 ft | 463 kts | 285° |
| 2026-05-05 20:00 | 55.91442 | -142.80759 | 31997 ft | 461 kts | 285° |
| 2026-05-05 20:00 | 55.93957 | -142.91219 | 31994 ft | 462 kts | 285° |
| 2026-05-05 20:01 | 55.96892 | -143.03493 | 31991 ft | 463 kts | 286° |
| 2026-05-05 20:01 | 55.99393 | -143.13995 | 31984 ft | 462 kts | 286° |
| 2026-05-05 20:02 | 56.01476 | -143.22783 | 31989 ft | 461 kts | 286° |
| 2026-05-05 20:02 | 56.03952 | -143.33285 | 31988 ft | 462 kts | 286° |
| 2026-05-05 20:03 | 56.06842 | -143.45599 | 31985 ft | 462 kts | 287° |
| 2026-05-05 20:03 | 56.08897 | -143.54402 | 31975 ft | 462 kts | 287° |
| 2026-05-05 20:04 | 56.11759 | -143.66721 | 31966 ft | 462 kts | 286° |
| 2026-05-05 20:04 | 56.13798 | -143.75540 | 31963 ft | 462 kts | 286° |
| 2026-05-05 20:05 | 56.16642 | -143.87901 | 31955 ft | 461 kts | 286° |
| 2026-05-05 20:05 | 56.18669 | -143.96759 | 31951 ft | 460 kts | 286° |
| 2026-05-05 20:06 | 56.21079 | -144.07347 | 31948 ft | 461 kts | 286° |
| 2026-05-05 20:06 | 56.23480 | -144.17938 | 31940 ft | 460 kts | 286° |
| 2026-05-05 20:07 | 56.26272 | -144.30321 | 31935 ft | 459 kts | 286° |
| 2026-05-05 20:07 | 56.28249 | -144.39136 | 31925 ft | 460 kts | 286° |
| 2026-05-05 20:08 | 56.30616 | -144.49739 | 31932 ft | 459 kts | 286° |
| 2026-05-05 20:08 | 56.32988 | -144.60419 | 31934 ft | 459 kts | 286° |
| 2026-05-05 20:09 | 56.35335 | -144.71042 | 31985 ft | 460 kts | 285° |
| 2026-05-05 20:09 | 56.36891 | -144.78111 | 32320 ft | 458 kts | 285° |
| 2026-05-05 20:09 | 56.37670 | -144.81659 | 32440 ft | 458 kts | 285° |
| 2026-05-05 20:09 | 56.38837 | -144.86990 | 32645 ft | 457 kts | 285° |
| 2026-05-05 20:10 | 56.40384 | -144.94073 | 32876 ft | 457 kts | 285° |
| 2026-05-05 20:10 | 56.41553 | -144.99442 | 33028 ft | 458 kts | 285° |
| 2026-05-05 20:10 | 56.42317 | -145.02963 | 33139 ft | 457 kts | 285° |
| 2026-05-05 20:10 | 56.43460 | -145.08234 | 33330 ft | 457 kts | 285° |
| 2026-05-05 20:11 | 56.45001 | -145.15366 | 33595 ft | 455 kts | 285° |
| 2026-05-05 20:11 | 56.45755 | -145.18866 | 33705 ft | 454 kts | 285° |
| 2026-05-05 20:11 | 56.46901 | -145.24194 | 33863 ft | 452 kts | 285° |
| 2026-05-05 20:12 | 56.49137 | -145.34627 | 33899 ft | 447 kts | 285° |
| 2026-05-05 20:12 | 56.51371 | -145.45110 | 33894 ft | 448 kts | 285° |
| 2026-05-05 20:13 | 56.53580 | -145.55527 | 33889 ft | 448 kts | 285° |
| 2026-05-05 20:13 | 56.56171 | -145.67815 | 33884 ft | 449 kts | 285° |
| 2026-05-05 20:14 | 56.58017 | -145.76614 | 33883 ft | 450 kts | 285° |
| 2026-05-05 20:14 | 56.60224 | -145.87181 | 33881 ft | 450 kts | 285° |
| 2026-05-05 20:15 | 56.62419 | -145.97749 | 33877 ft | 450 kts | 285° |
| 2026-05-05 20:15 | 56.64614 | -146.08371 | 33888 ft | 450 kts | 285° |
| 2026-05-05 20:16 | 56.66787 | -146.18945 | 33886 ft | 449 kts | 285° |
| 2026-05-05 20:16 | 56.69310 | -146.31290 | 33859 ft | 448 kts | 285° |
| 2026-05-05 20:17 | 56.71105 | -146.40122 | 33861 ft | 448 kts | 285° |
| 2026-05-05 20:17 | 56.73248 | -146.50714 | 33855 ft | 449 kts | 285° |
| 2026-05-05 20:18 | 56.75377 | -146.61295 | 33870 ft | 448 kts | 285° |
| 2026-05-05 20:18 | 56.77861 | -146.73712 | 33877 ft | 447 kts | 284° |
| 2026-05-05 20:19 | 56.79617 | -146.82538 | 33866 ft | 446 kts | 284° |
| 2026-05-05 20:19 | 56.81711 | -146.93112 | 33861 ft | 446 kts | 284° |
| 2026-05-05 20:20 | 56.83793 | -147.03690 | 33856 ft | 446 kts | 284° |
| 2026-05-05 20:20 | 56.85877 | -147.14328 | 33851 ft | 447 kts | 284° |
| 2026-05-05 20:21 | 56.87963 | -147.25037 | 33851 ft | 447 kts | 284° |
| 2026-05-05 20:21 | 56.90017 | -147.35638 | 33845 ft | 447 kts | 284° |
| 2026-05-05 20:22 | 56.92080 | -147.46347 | 33831 ft | 447 kts | 285° |
| 2026-05-05 20:22 | 56.94132 | -147.57057 | 33827 ft | 448 kts | 285° |
| 2026-05-05 20:23 | 56.96173 | -147.67772 | 33837 ft | 447 kts | 284° |
| 2026-05-05 20:23 | 56.98536 | -147.80247 | 33841 ft | 447 kts | 284° |
| 2026-05-05 20:24 | 57.00222 | -147.89198 | 33827 ft | 447 kts | 284° |
| 2026-05-05 20:24 | 57.02228 | -147.99908 | 33813 ft | 447 kts | 284° |
| 2026-05-05 20:25 | 57.04563 | -148.12447 | 33820 ft | 446 kts | 284° |
| 2026-05-05 20:25 | 57.06552 | -148.23196 | 33825 ft | 447 kts | 284° |
| 2026-05-05 20:26 | 57.08203 | -148.32165 | 33813 ft | 448 kts | 284° |
| 2026-05-05 20:26 | 57.10183 | -148.42978 | 33808 ft | 449 kts | 284° |
| 2026-05-05 20:27 | 57.12168 | -148.53880 | 33807 ft | 449 kts | 284° |
| 2026-05-05 20:27 | 57.14117 | -148.64650 | 33787 ft | 448 kts | 284° |
| 2026-05-05 20:28 | 57.16069 | -148.75502 | 33772 ft | 448 kts | 284° |
| 2026-05-05 20:28 | 57.18012 | -148.86360 | 33765 ft | 447 kts | 284° |
| 2026-05-05 20:29 | 57.20261 | -148.99017 | 33765 ft | 447 kts | 284° |
| 2026-05-05 20:29 | 57.21859 | -149.08063 | 33775 ft | 447 kts | 284° |
| 2026-05-05 20:30 | 57.23766 | -149.18912 | 33770 ft | 446 kts | 284° |
| 2026-05-05 20:30 | 57.25653 | -149.29715 | 33772 ft | 447 kts | 284° |
| 2026-05-05 20:31 | 57.27545 | -149.40614 | 33773 ft | 448 kts | 284° |
| 2026-05-05 20:31 | 57.29427 | -149.51520 | 33771 ft | 448 kts | 284° |
| 2026-05-05 20:32 | 57.31303 | -149.62451 | 33763 ft | 448 kts | 284° |
| 2026-05-05 20:32 | 57.33167 | -149.73383 | 33771 ft | 448 kts | 284° |
| 2026-05-05 20:33 | 57.35032 | -149.84386 | 33757 ft | 447 kts | 284° |
| 2026-05-05 20:33 | 57.36867 | -149.95283 | 33759 ft | 448 kts | 284° |
| 2026-05-05 20:34 | 57.38710 | -150.06288 | 33748 ft | 447 kts | 284° |
| 2026-05-05 20:34 | 57.40531 | -150.17236 | 33746 ft | 446 kts | 284° |
| 2026-05-05 20:35 | 57.42339 | -150.28175 | 33745 ft | 446 kts | 284° |
| 2026-05-05 20:35 | 57.44135 | -150.39107 | 33750 ft | 447 kts | 284° |
| 2026-05-05 20:36 | 57.45927 | -150.50092 | 33763 ft | 447 kts | 283° |
| 2026-05-05 20:36 | 57.47163 | -150.61348 | 33759 ft | 445 kts | 278° |
| 2026-05-05 20:37 | 57.48241 | -150.72580 | 33753 ft | 445 kts | 277° |
| 2026-05-05 20:37 | 57.49297 | -150.83820 | 33741 ft | 444 kts | 277° |
| 2026-05-05 20:38 | 57.50346 | -150.95161 | 33746 ft | 445 kts | 277° |
| 2026-05-05 20:38 | 57.51369 | -151.06363 | 33766 ft | 443 kts | 277° |
| 2026-05-05 20:39 | 57.52387 | -151.17618 | 33762 ft | 444 kts | 277° |
| 2026-05-05 20:39 | 57.53394 | -151.28883 | 33766 ft | 443 kts | 277° |
| 2026-05-05 20:40 | 57.54389 | -151.40141 | 33750 ft | 443 kts | 277° |
| 2026-05-05 20:40 | 57.55383 | -151.51494 | 33764 ft | 445 kts | 277° |
| 2026-05-05 20:41 | 57.56364 | -151.62833 | 33758 ft | 446 kts | 277° |
| 2026-05-05 20:41 | 57.57330 | -151.74129 | 33768 ft | 445 kts | 277° |
| 2026-05-05 20:42 | 57.58290 | -151.85454 | 33775 ft | 445 kts | 277° |
| 2026-05-05 20:42 | 57.59244 | -151.96860 | 33775 ft | 445 kts | 277° |
| 2026-05-05 20:43 | 57.60182 | -152.08182 | 33772 ft | 445 kts | 277° |
| 2026-05-05 20:43 | 57.61113 | -152.19548 | 33778 ft | 444 kts | 277° |
| 2026-05-05 20:44 | 57.62029 | -152.30884 | 33775 ft | 445 kts | 277° |
| 2026-05-05 20:44 | 57.62944 | -152.42316 | 33773 ft | 445 kts | 277° |
| 2026-05-05 20:45 | 57.64289 | -152.59390 | 33760 ft | 447 kts | 277° |
| 2026-05-05 20:45 | 57.65176 | -152.70825 | 33757 ft | 448 kts | 276° |
| 2026-05-05 20:46 | 57.66054 | -152.82278 | 33748 ft | 449 kts | 276° |
| 2026-05-05 20:46 | 57.66927 | -152.93788 | 33749 ft | 449 kts | 276° |
| 2026-05-05 20:47 | 57.67788 | -153.05312 | 33745 ft | 449 kts | 276° |
| 2026-05-05 20:47 | 57.68634 | -153.16756 | 33739 ft | 448 kts | 276° |
| 2026-05-05 20:48 | 57.69472 | -153.28252 | 33745 ft | 448 kts | 276° |
| 2026-05-05 20:48 | 57.70304 | -153.39807 | 33744 ft | 449 kts | 276° |
| 2026-05-05 20:49 | 57.71123 | -153.51340 | 33757 ft | 450 kts | 276° |
| 2026-05-05 20:49 | 57.71930 | -153.62846 | 33767 ft | 450 kts | 276° |
| 2026-05-05 20:50 | 57.72730 | -153.74425 | 33767 ft | 450 kts | 276° |
| 2026-05-05 20:50 | 57.73519 | -153.85986 | 33783 ft | 450 kts | 275° |
| 2026-05-05 20:51 | 57.74295 | -153.97530 | 33794 ft | 449 kts | 276° |
| 2026-05-05 20:51 | 57.75061 | -154.09073 | 33785 ft | 449 kts | 276° |
| 2026-05-05 20:52 | 57.75817 | -154.20634 | 33787 ft | 451 kts | 276° |
| 2026-05-05 20:52 | 57.76569 | -154.32294 | 33783 ft | 450 kts | 276° |
| 2026-05-05 20:53 | 57.77301 | -154.43831 | 33786 ft | 451 kts | 276° |
| 2026-05-05 20:53 | 57.78032 | -154.55498 | 33784 ft | 452 kts | 276° |
| 2026-05-05 20:54 | 57.78750 | -154.67162 | 33784 ft | 453 kts | 275° |
| 2026-05-05 20:54 | 57.79458 | -154.78827 | 33794 ft | 453 kts | 275° |
| 2026-05-05 20:55 | 57.80156 | -154.90505 | 33802 ft | 454 kts | 275° |
| 2026-05-05 20:55 | 57.80844 | -155.02210 | 33808 ft | 454 kts | 275° |
| 2026-05-05 20:56 | 57.81524 | -155.13954 | 33806 ft | 453 kts | 275° |
| 2026-05-05 20:56 | 57.82188 | -155.25612 | 33792 ft | 453 kts | 275° |
| 2026-05-05 20:57 | 57.82841 | -155.37279 | 33796 ft | 453 kts | 275° |
| 2026-05-05 20:57 | 57.83485 | -155.48982 | 33800 ft | 454 kts | 275° |
| 2026-05-05 20:58 | 57.84120 | -155.60724 | 33808 ft | 455 kts | 275° |
| 2026-05-05 20:58 | 57.84744 | -155.72466 | 33796 ft | 454 kts | 274° |
| 2026-05-05 20:59 | 57.85359 | -155.84242 | 33777 ft | 456 kts | 274° |
| 2026-05-05 20:59 | 57.85963 | -155.96025 | 33792 ft | 456 kts | 275° |
| 2026-05-05 21:00 | 57.86557 | -156.07831 | 33803 ft | 455 kts | 275° |
| 2026-05-05 21:00 | 57.87140 | -156.19627 | 33815 ft | 454 kts | 275° |
| 2026-05-05 21:01 | 57.87707 | -156.31343 | 33822 ft | 455 kts | 275° |
| 2026-05-05 21:01 | 57.88268 | -156.43141 | 33811 ft | 455 kts | 275° |
| 2026-05-05 21:02 | 57.88817 | -156.54933 | 33809 ft | 456 kts | 275° |
| 2026-05-05 21:02 | 57.89354 | -156.66710 | 33819 ft | 455 kts | 274° |
| 2026-05-05 21:03 | 57.89881 | -156.78500 | 33836 ft | 454 kts | 274° |
| 2026-05-05 21:03 | 57.90397 | -156.90305 | 33837 ft | 455 kts | 274° |
| 2026-05-05 21:04 | 57.90904 | -157.02142 | 33842 ft | 456 kts | 274° |
| 2026-05-05 21:04 | 57.91399 | -157.13959 | 33842 ft | 454 kts | 274° |
| 2026-05-05 21:05 | 57.91881 | -157.25740 | 33847 ft | 455 kts | 274° |
| 2026-05-05 21:05 | 57.92354 | -157.37563 | 33834 ft | 455 kts | 274° |
| 2026-05-05 21:06 | 57.92812 | -157.49309 | 33850 ft | 455 kts | 274° |
| 2026-05-05 21:06 | 57.93263 | -157.61125 | 33858 ft | 455 kts | 275° |
| 2026-05-05 21:07 | 57.93703 | -157.72972 | 33863 ft | 456 kts | 274° |
| 2026-05-05 21:07 | 57.94133 | -157.84834 | 33858 ft | 457 kts | 274° |
| 2026-05-05 21:08 | 57.94553 | -157.96751 | 33857 ft | 458 kts | 274° |
| 2026-05-05 21:08 | 57.94964 | -158.08679 | 33858 ft | 459 kts | 274° |
| 2026-05-05 21:09 | 57.95362 | -158.20615 | 33864 ft | 459 kts | 274° |
| 2026-05-05 21:09 | 57.95748 | -158.32515 | 33867 ft | 457 kts | 274° |
| 2026-05-05 21:10 | 57.96123 | -158.44395 | 33864 ft | 456 kts | 274° |
| 2026-05-05 21:10 | 57.96486 | -158.56273 | 33863 ft | 456 kts | 274° |
| 2026-05-05 21:11 | 57.96836 | -158.68088 | 33861 ft | 456 kts | 274° |
| 2026-05-05 21:11 | 57.97178 | -158.80003 | 33864 ft | 455 kts | 274° |
| 2026-05-05 21:12 | 57.97507 | -158.91832 | 33863 ft | 455 kts | 274° |
| 2026-05-05 21:12 | 57.97825 | -159.03674 | 33872 ft | 456 kts | 274° |
| 2026-05-05 21:13 | 57.98134 | -159.15602 | 33880 ft | 457 kts | 274° |
| 2026-05-05 21:13 | 57.98430 | -159.27446 | 33888 ft | 457 kts | 274° |
| 2026-05-05 21:14 | 57.98716 | -159.39340 | 33891 ft | 457 kts | 274° |
| 2026-05-05 21:14 | 57.98991 | -159.51277 | 33888 ft | 457 kts | 274° |
| 2026-05-05 21:15 | 57.99255 | -159.63162 | 33883 ft | 456 kts | 274° |
| 2026-05-05 21:15 | 57.99507 | -159.75081 | 33888 ft | 457 kts | 274° |
| 2026-05-05 21:16 | 57.99749 | -159.87018 | 33886 ft | 457 kts | 274° |
| 2026-05-05 21:16 | 57.99986 | -159.98947 | 33885 ft | 457 kts | 274° |
| 2026-05-05 21:17 | 58.00342 | -160.10773 | 33899 ft | 457 kts | 275° |
| 2026-05-05 21:17 | 58.00700 | -160.22743 | 33901 ft | 457 kts | 275° |
| 2026-05-05 21:18 | 58.01045 | -160.34590 | 33897 ft | 456 kts | 275° |
| 2026-05-05 21:18 | 58.01381 | -160.46493 | 33900 ft | 456 kts | 275° |
| 2026-05-05 21:19 | 58.01707 | -160.58395 | 33905 ft | 456 kts | 275° |
| 2026-05-05 21:19 | 58.02021 | -160.70253 | 33907 ft | 456 kts | 275° |
| 2026-05-05 21:20 | 58.02324 | -160.82135 | 33920 ft | 455 kts | 275° |
| 2026-05-05 21:20 | 58.02616 | -160.94022 | 33924 ft | 454 kts | 275° |
| 2026-05-05 21:21 | 58.02895 | -161.05815 | 33930 ft | 454 kts | 275° |
| 2026-05-05 21:21 | 58.03165 | -161.17671 | 33932 ft | 455 kts | 275° |
| 2026-05-05 21:22 | 58.03424 | -161.29604 | 33944 ft | 456 kts | 275° |
| 2026-05-05 21:22 | 58.03671 | -161.41463 | 33949 ft | 456 kts | 275° |
| 2026-05-05 21:23 | 58.03910 | -161.53427 | 33962 ft | 456 kts | 275° |
| 2026-05-05 21:23 | 58.04135 | -161.65315 | 33961 ft | 456 kts | 275° |
| 2026-05-05 21:24 | 58.04348 | -161.77136 | 33979 ft | 455 kts | 275° |
| 2026-05-05 21:24 | 58.04553 | -161.89098 | 33968 ft | 456 kts | 275° |
| 2026-05-05 21:25 | 58.04746 | -162.01024 | 33998 ft | 456 kts | 275° |
| 2026-05-05 21:25 | 58.04927 | -162.12917 | 33995 ft | 456 kts | 275° |
| 2026-05-05 21:26 | 58.05097 | -162.24762 | 34003 ft | 456 kts | 275° |
| 2026-05-05 21:26 | 58.05257 | -162.36749 | 34009 ft | 457 kts | 275° |
| 2026-05-05 21:27 | 58.05405 | -162.48677 | 34019 ft | 455 kts | 275° |
| 2026-05-05 21:27 | 58.05541 | -162.60524 | 34017 ft | 456 kts | 276° |
| 2026-05-05 21:28 | 58.05667 | -162.72443 | 34032 ft | 456 kts | 275° |
| 2026-05-05 21:28 | 58.05783 | -162.84409 | 34052 ft | 457 kts | 275° |
| 2026-05-05 21:29 | 58.05887 | -162.96318 | 34057 ft | 456 kts | 275° |
| 2026-05-05 21:29 | 58.05979 | -163.08256 | 34048 ft | 456 kts | 275° |
| 2026-05-05 21:30 | 58.06061 | -163.20157 | 34064 ft | 457 kts | 275° |
| 2026-05-05 21:30 | 58.06131 | -163.32106 | 34053 ft | 458 kts | 275° |
| 2026-05-05 21:31 | 58.06190 | -163.44086 | 34058 ft | 457 kts | 276° |
| 2026-05-05 21:31 | 58.06237 | -163.55992 | 34058 ft | 456 kts | 276° |
| 2026-05-05 21:32 | 58.06275 | -163.67874 | 34064 ft | 457 kts | 275° |
| 2026-05-05 21:32 | 58.06300 | -163.79913 | 34065 ft | 457 kts | 275° |
| 2026-05-05 21:33 | 58.06314 | -163.91827 | 34067 ft | 456 kts | 275° |
| 2026-05-05 21:33 | 58.06318 | -164.03693 | 34073 ft | 456 kts | 275° |
| 2026-05-05 21:34 | 58.06311 | -164.15616 | 34066 ft | 457 kts | 276° |
| 2026-05-05 21:34 | 58.06292 | -164.27586 | 34096 ft | 458 kts | 276° |
| 2026-05-05 21:35 | 58.06261 | -164.39552 | 34083 ft | 456 kts | 275° |
| 2026-05-05 21:35 | 58.06220 | -164.51466 | 34085 ft | 457 kts | 276° |
| 2026-05-05 21:36 | 58.06168 | -164.63441 | 34080 ft | 457 kts | 276° |
| 2026-05-05 21:36 | 58.06103 | -164.75397 | 34099 ft | 458 kts | 275° |
| 2026-05-05 21:37 | 58.06028 | -164.87291 | 34093 ft | 457 kts | 275° |
| 2026-05-05 21:37 | 58.05943 | -164.99274 | 34088 ft | 457 kts | 275° |
| 2026-05-05 21:38 | 58.05846 | -165.11227 | 34090 ft | 457 kts | 275° |
| 2026-05-05 21:38 | 58.05606 | -165.23177 | 34092 ft | 458 kts | 271° |
| 2026-05-05 21:39 | 58.05073 | -165.35053 | 34095 ft | 457 kts | 271° |
| 2026-05-05 21:39 | 58.04505 | -165.47008 | 34092 ft | 459 kts | 271° |
| 2026-05-05 21:40 | 58.03915 | -165.58972 | 34102 ft | 460 kts | 271° |
| 2026-05-05 21:40 | 58.03311 | -165.70882 | 34102 ft | 461 kts | 270° |
| 2026-05-05 21:41 | 58.02689 | -165.82895 | 34112 ft | 461 kts | 270° |
| 2026-05-05 21:41 | 58.02057 | -165.94846 | 34111 ft | 460 kts | 270° |
| 2026-05-05 21:42 | 58.01417 | -166.06738 | 34107 ft | 458 kts | 270° |
| 2026-05-05 21:42 | 58.00764 | -166.18684 | 34109 ft | 457 kts | 270° |
| 2026-05-05 21:43 | 58.00106 | -166.30519 | 34109 ft | 459 kts | 270° |
| 2026-05-05 21:43 | 57.99429 | -166.42461 | 34113 ft | 458 kts | 270° |
| 2026-05-05 21:44 | 57.98743 | -166.54361 | 34115 ft | 460 kts | 270° |
| 2026-05-05 21:44 | 57.98047 | -166.66264 | 34120 ft | 460 kts | 269° |
| 2026-05-05 21:45 | 57.97338 | -166.78172 | 34122 ft | 459 kts | 269° |
| 2026-05-05 21:45 | 57.96619 | -166.90063 | 34126 ft | 460 kts | 269° |
| 2026-05-05 21:46 | 57.95889 | -167.01942 | 34133 ft | 459 kts | 269° |
| 2026-05-05 21:46 | 57.95144 | -167.13881 | 34136 ft | 459 kts | 269° |
| 2026-05-05 21:47 | 57.94395 | -167.25714 | 34135 ft | 458 kts | 269° |
| 2026-05-05 21:47 | 57.93631 | -167.37590 | 34138 ft | 458 kts | 269° |
| 2026-05-05 21:48 | 57.92857 | -167.49442 | 34140 ft | 459 kts | 268° |
| 2026-05-05 21:48 | 57.92075 | -167.61266 | 34141 ft | 459 kts | 268° |
| 2026-05-05 21:49 | 57.91281 | -167.73080 | 34145 ft | 459 kts | 268° |
| 2026-05-05 21:49 | 57.90472 | -167.84944 | 34149 ft | 459 kts | 268° |
| 2026-05-05 21:50 | 57.89655 | -167.96782 | 34152 ft | 458 kts | 267° |
| 2026-05-05 21:50 | 57.88822 | -168.08656 | 34153 ft | 458 kts | 267° |
| 2026-05-05 21:51 | 57.87983 | -168.20477 | 34148 ft | 459 kts | 267° |
| 2026-05-05 21:51 | 57.87133 | -168.32289 | 34154 ft | 459 kts | 267° |
| 2026-05-05 21:52 | 57.85837 | -168.49995 | 34159 ft | 459 kts | 267° |
| 2026-05-05 21:53 | 57.84956 | -168.61832 | 34163 ft | 458 kts | 267° |
| 2026-05-05 21:53 | 57.84067 | -168.73625 | 34164 ft | 458 kts | 266° |
| 2026-05-05 21:54 | 57.83169 | -168.85393 | 34166 ft | 459 kts | 266° |
| 2026-05-05 21:54 | 57.82255 | -168.97220 | 34167 ft | 459 kts | 266° |
| 2026-05-05 21:55 | 57.81332 | -169.09007 | 34166 ft | 459 kts | 266° |
| 2026-05-05 21:55 | 57.80398 | -169.20787 | 34165 ft | 458 kts | 266° |
| 2026-05-05 21:56 | 57.79456 | -169.32542 | 34169 ft | 457 kts | 266° |
| 2026-05-05 21:56 | 57.78511 | -169.44177 | 34164 ft | 457 kts | 266° |
| 2026-05-05 21:57 | 57.77544 | -169.55953 | 34166 ft | 458 kts | 266° |
| 2026-05-05 21:57 | 57.76570 | -169.67670 | 34170 ft | 458 kts | 265° |
| 2026-05-05 21:58 | 57.75586 | -169.79388 | 34172 ft | 458 kts | 265° |
| 2026-05-05 21:58 | 57.74591 | -169.91086 | 34174 ft | 456 kts | 265° |
| 2026-05-05 21:59 | 57.73586 | -170.02773 | 34174 ft | 456 kts | 265° |
| 2026-05-05 21:59 | 57.72572 | -170.14430 | 34173 ft | 456 kts | 264° |
| 2026-05-05 22:00 | 57.71547 | -170.26090 | 34175 ft | 457 kts | 264° |
| 2026-05-05 22:00 | 57.70512 | -170.37726 | 34173 ft | 457 kts | 264° |
| 2026-05-05 22:01 | 57.69470 | -170.49327 | 34182 ft | 455 kts | 264° |
| 2026-05-05 22:01 | 57.68413 | -170.60960 | 34172 ft | 455 kts | 264° |
| 2026-05-05 22:02 | 57.67347 | -170.72565 | 34184 ft | 455 kts | 263° |
| 2026-05-05 22:02 | 57.66270 | -170.84166 | 34179 ft | 454 kts | 263° |
| 2026-05-05 22:03 | 57.65190 | -170.95686 | 34192 ft | 453 kts | 263° |
| 2026-05-05 22:03 | 57.64098 | -171.07222 | 34196 ft | 452 kts | 263° |
| 2026-05-05 22:04 | 57.62997 | -171.18730 | 34179 ft | 453 kts | 263° |
| 2026-05-05 22:04 | 57.61888 | -171.30200 | 34170 ft | 453 kts | 263° |
| 2026-05-05 22:05 | 57.60764 | -171.41716 | 34166 ft | 452 kts | 263° |
| 2026-05-05 22:05 | 57.59628 | -171.53242 | 34191 ft | 452 kts | 263° |
| 2026-05-05 22:06 | 57.58492 | -171.64651 | 34181 ft | 452 kts | 263° |
| 2026-05-05 22:06 | 57.57338 | -171.76132 | 34197 ft | 451 kts | 263° |
| 2026-05-05 22:07 | 57.56184 | -171.87499 | 34193 ft | 450 kts | 263° |
| 2026-05-05 22:07 | 57.55015 | -171.98914 | 34197 ft | 450 kts | 263° |
| 2026-05-05 22:08 | 57.53838 | -172.10295 | 34203 ft | 449 kts | 263° |
| 2026-05-05 22:08 | 57.52653 | -172.21648 | 34206 ft | 448 kts | 263° |
| 2026-05-05 22:09 | 57.51458 | -172.32987 | 34206 ft | 448 kts | 263° |
| 2026-05-05 22:09 | 57.50260 | -172.44261 | 34196 ft | 447 kts | 263° |
| 2026-05-05 22:10 | 57.49043 | -172.55600 | 34200 ft | 447 kts | 263° |
| 2026-05-05 22:10 | 57.47832 | -172.66789 | 34197 ft | 446 kts | 262° |
| 2026-05-05 22:11 | 57.46598 | -172.78096 | 34215 ft | 446 kts | 262° |
| 2026-05-05 22:11 | 57.45360 | -172.89327 | 34198 ft | 444 kts | 262° |
| 2026-05-05 22:12 | 57.44119 | -173.00499 | 34201 ft | 445 kts | 262° |
| 2026-05-05 22:12 | 57.42867 | -173.11668 | 34204 ft | 446 kts | 262° |
| 2026-05-05 22:13 | 57.41595 | -173.22917 | 34203 ft | 444 kts | 262° |
| 2026-05-05 22:13 | 57.40328 | -173.34038 | 34207 ft | 443 kts | 262° |
| 2026-05-05 22:14 | 57.39049 | -173.45161 | 34201 ft | 443 kts | 262° |
| 2026-05-05 22:14 | 57.37760 | -173.56276 | 34209 ft | 443 kts | 262° |
| 2026-05-05 22:15 | 57.36466 | -173.67346 | 34200 ft | 443 kts | 261° |
| 2026-05-05 22:15 | 57.35155 | -173.78468 | 34202 ft | 443 kts | 261° |
| 2026-05-05 22:16 | 57.33834 | -173.89583 | 34212 ft | 443 kts | 261° |
| 2026-05-05 22:16 | 57.32507 | -174.00661 | 34213 ft | 444 kts | 261° |
| 2026-05-05 22:17 | 57.31165 | -174.11766 | 34194 ft | 442 kts | 261° |
| 2026-05-05 22:17 | 57.29829 | -174.22745 | 34201 ft | 443 kts | 261° |
| 2026-05-05 22:18 | 57.28471 | -174.33812 | 34192 ft | 440 kts | 261° |
| 2026-05-05 22:18 | 57.27116 | -174.44768 | 34198 ft | 439 kts | 261° |
| 2026-05-05 22:19 | 57.25755 | -174.55692 | 34200 ft | 439 kts | 262° |
| 2026-05-05 22:19 | 57.24383 | -174.66617 | 34205 ft | 438 kts | 261° |
| 2026-05-05 22:20 | 57.23004 | -174.77512 | 34207 ft | 439 kts | 261° |
| 2026-05-05 22:20 | 57.21621 | -174.88365 | 34200 ft | 438 kts | 261° |
| 2026-05-05 22:21 | 57.20222 | -174.99246 | 34205 ft | 437 kts | 261° |
| 2026-05-05 22:21 | 57.18823 | -175.10063 | 34218 ft | 436 kts | 261° |
| 2026-05-05 22:22 | 57.17412 | -175.20885 | 34229 ft | 437 kts | 261° |
| 2026-05-05 22:22 | 57.15983 | -175.31775 | 34214 ft | 438 kts | 261° |
| 2026-05-05 22:23 | 57.14557 | -175.42548 | 34221 ft | 437 kts | 261° |
| 2026-05-05 22:23 | 57.13108 | -175.53421 | 34216 ft | 438 kts | 261° |
| 2026-05-05 22:24 | 57.11665 | -175.64171 | 34225 ft | 436 kts | 261° |
| 2026-05-05 22:24 | 57.10205 | -175.74971 | 34222 ft | 435 kts | 260° |
| 2026-05-05 22:25 | 57.08745 | -175.85700 | 34221 ft | 436 kts | 259° |
| 2026-05-05 22:25 | 57.07265 | -175.96483 | 34218 ft | 437 kts | 259° |
| 2026-05-05 22:26 | 57.05774 | -176.07283 | 34207 ft | 438 kts | 259° |
| 2026-05-05 22:26 | 57.04278 | -176.18045 | 34195 ft | 437 kts | 259° |
| 2026-05-05 22:27 | 57.02767 | -176.28839 | 34194 ft | 437 kts | 259° |
| 2026-05-05 22:27 | 57.01252 | -176.39580 | 34191 ft | 437 kts | 259° |
| 2026-05-05 22:28 | 56.99729 | -176.50310 | 34191 ft | 437 kts | 259° |
| 2026-05-05 22:28 | 56.98196 | -176.61024 | 34183 ft | 437 kts | 258° |
| 2026-05-05 22:29 | 56.96648 | -176.71782 | 34189 ft | 437 kts | 258° |
| 2026-05-05 22:29 | 56.95102 | -176.82455 | 34191 ft | 436 kts | 258° |
| 2026-05-05 22:30 | 56.93550 | -176.93091 | 34195 ft | 435 kts | 257° |
| 2026-05-05 22:30 | 56.91984 | -177.03760 | 34175 ft | 437 kts | 257° |
| 2026-05-05 22:31 | 56.90396 | -177.14497 | 34181 ft | 436 kts | 257° |
| 2026-05-05 22:31 | 56.88820 | -177.25089 | 34198 ft | 434 kts | 257° |
| 2026-05-05 22:32 | 56.87227 | -177.35727 | 34180 ft | 435 kts | 257° |
| 2026-05-05 22:32 | 56.85643 | -177.46236 | 34180 ft | 432 kts | 257° |
| 2026-05-05 22:33 | 56.84042 | -177.56790 | 34172 ft | 433 kts | 257° |
| 2026-05-05 22:33 | 56.82427 | -177.67363 | 34181 ft | 433 kts | 256° |
| 2026-05-05 22:34 | 56.80818 | -177.77832 | 34186 ft | 432 kts | 256° |
| 2026-05-05 22:34 | 56.79197 | -177.88318 | 34192 ft | 429 kts | 256° |
| 2026-05-05 22:35 | 56.77568 | -177.98789 | 34187 ft | 429 kts | 255° |
| 2026-05-05 22:35 | 56.75938 | -178.09198 | 34188 ft | 429 kts | 256° |
| 2026-05-05 22:36 | 56.74309 | -178.19537 | 34180 ft | 429 kts | 255° |
| 2026-05-05 22:36 | 56.72658 | -178.29958 | 34170 ft | 429 kts | 255° |
| 2026-05-05 22:37 | 56.71006 | -178.40314 | 34176 ft | 429 kts | 255° |
| 2026-05-05 22:37 | 56.69331 | -178.50751 | 34163 ft | 429 kts | 255° |
| 2026-05-05 22:38 | 56.67658 | -178.61112 | 34167 ft | 430 kts | 255° |
| 2026-05-05 22:38 | 56.65975 | -178.71477 | 34165 ft | 431 kts | 253° |
| 2026-05-05 22:39 | 56.64279 | -178.81857 | 34163 ft | 430 kts | 254° |
| 2026-05-05 22:39 | 56.62574 | -178.92232 | 34147 ft | 429 kts | 253° |
| 2026-05-05 22:40 | 56.60869 | -179.02544 | 34159 ft | 429 kts | 253° |
| 2026-05-05 22:40 | 56.59153 | -179.12862 | 34155 ft | 430 kts | 253° |
| 2026-05-05 22:41 | 56.57419 | -179.23225 | 34144 ft | 432 kts | 253° |
| 2026-05-05 22:41 | 56.55674 | -179.33591 | 34142 ft | 430 kts | 253° |
| 2026-05-05 22:42 | 56.53925 | -179.43930 | 34148 ft | 431 kts | 253° |
| 2026-05-05 22:42 | 56.52159 | -179.54298 | 34149 ft | 432 kts | 252° |
| 2026-05-05 22:43 | 56.50397 | -179.64590 | 34152 ft | 433 kts | 252° |
| 2026-05-05 22:43 | 56.48599 | -179.75023 | 34136 ft | 434 kts | 252° |
| 2026-05-05 22:44 | 56.46805 | -179.85376 | 34138 ft | 433 kts | 252° |
| 2026-05-05 22:44 | 56.45015 | -179.95653 | 34144 ft | 433 kts | 252° |
| 2026-05-05 22:45 | 56.43203 | 179.94008 | 34131 ft | 435 kts | 252° |
| 2026-05-05 22:45 | 56.41380 | 179.83661 | 34122 ft | 434 kts | 252° |
| 2026-05-05 22:46 | 56.39545 | 179.73305 | 34122 ft | 435 kts | 251° |
| 2026-05-05 22:46 | 56.37697 | 179.62942 | 34114 ft | 437 kts | 251° |
| 2026-05-05 22:47 | 56.35833 | 179.52544 | 34116 ft | 436 kts | 251° |
| 2026-05-05 22:47 | 56.33967 | 179.42194 | 34118 ft | 438 kts | 251° |
| 2026-05-05 22:48 | 56.32088 | 179.31827 | 34112 ft | 438 kts | 250° |
| 2026-05-05 22:48 | 56.30190 | 179.21414 | 34104 ft | 439 kts | 250° |
| 2026-05-05 22:49 | 56.28286 | 179.11029 | 34110 ft | 439 kts | 250° |
| 2026-05-05 22:49 | 56.26368 | 179.00619 | 34108 ft | 441 kts | 250° |
| 2026-05-05 22:50 | 56.24443 | 178.90230 | 34097 ft | 439 kts | 250° |
| 2026-05-05 22:50 | 56.22514 | 178.79883 | 34095 ft | 438 kts | 250° |
| 2026-05-05 22:51 | 56.20578 | 178.69551 | 34076 ft | 441 kts | 250° |
| 2026-05-05 22:51 | 56.18619 | 178.59158 | 34074 ft | 443 kts | 250° |
| 2026-05-05 22:52 | 56.16646 | 178.48743 | 34068 ft | 442 kts | 250° |
| 2026-05-05 22:52 | 56.14665 | 178.38344 | 34062 ft | 443 kts | 249° |
| 2026-05-05 22:53 | 56.12665 | 178.27901 | 34063 ft | 443 kts | 249° |
| 2026-05-05 22:53 | 56.10672 | 178.17549 | 34068 ft | 443 kts | 248° |
| 2026-05-05 22:54 | 56.08699 | 178.07124 | 34058 ft | 445 kts | 251° |
| 2026-05-05 22:54 | 56.06972 | 177.96487 | 34049 ft | 448 kts | 251° |
| 2026-05-05 22:55 | 56.05240 | 177.85788 | 34044 ft | 449 kts | 251° |
| 2026-05-05 22:55 | 56.03502 | 177.75089 | 34042 ft | 450 kts | 251° |
| 2026-05-05 22:56 | 56.01773 | 177.64482 | 34045 ft | 449 kts | 251° |
| 2026-05-05 22:56 | 56.00011 | 177.53731 | 34041 ft | 452 kts | 251° |
| 2026-05-05 22:57 | 55.98244 | 177.43019 | 34024 ft | 452 kts | 251° |
| 2026-05-05 22:57 | 55.96476 | 177.32364 | 34021 ft | 452 kts | 250° |
| 2026-05-05 22:58 | 55.94681 | 177.21617 | 34033 ft | 452 kts | 250° |
| 2026-05-05 22:58 | 55.92890 | 177.10948 | 34040 ft | 452 kts | 250° |
| 2026-05-05 22:59 | 55.91079 | 177.00232 | 34025 ft | 452 kts | 250° |
| 2026-05-05 22:59 | 55.89268 | 176.89577 | 34036 ft | 452 kts | 250° |
| 2026-05-05 23:00 | 55.86523 | 176.73549 | 34017 ft | 453 kts | 249° |
| 2026-05-05 23:00 | 55.84684 | 176.62895 | 34008 ft | 455 kts | 249° |
| 2026-05-05 23:01 | 55.82824 | 176.52185 | 34005 ft | 455 kts | 249° |
| 2026-05-05 23:01 | 55.80948 | 176.41438 | 33987 ft | 455 kts | 249° |
| 2026-05-05 23:02 | 55.79070 | 176.30749 | 33985 ft | 455 kts | 248° |
| 2026-05-05 23:02 | 55.77182 | 176.20065 | 33974 ft | 455 kts | 249° |
| 2026-05-05 23:03 | 55.75286 | 176.09401 | 33973 ft | 456 kts | 248° |
| 2026-05-05 23:03 | 55.73377 | 175.98724 | 33977 ft | 458 kts | 248° |
| 2026-05-05 23:04 | 55.71452 | 175.88014 | 33954 ft | 457 kts | 248° |
| 2026-05-05 23:04 | 55.69524 | 175.77359 | 33940 ft | 458 kts | 248° |
| 2026-05-05 23:05 | 55.67565 | 175.66592 | 33929 ft | 459 kts | 248° |
| 2026-05-05 23:05 | 55.65619 | 175.55954 | 33942 ft | 457 kts | 248° |
| 2026-05-05 23:06 | 55.63662 | 175.45320 | 33934 ft | 458 kts | 248° |
| 2026-05-05 23:06 | 55.61677 | 175.34592 | 33922 ft | 458 kts | 247° |
| 2026-05-05 23:07 | 55.59707 | 175.24011 | 33924 ft | 458 kts | 247° |
| 2026-05-05 23:07 | 55.57711 | 175.13351 | 33919 ft | 458 kts | 247° |
| 2026-05-05 23:08 | 55.55698 | 175.02657 | 33911 ft | 460 kts | 247° |
| 2026-05-05 23:08 | 55.53692 | 174.92061 | 33905 ft | 459 kts | 247° |
| 2026-05-05 23:09 | 55.51649 | 174.81332 | 33903 ft | 461 kts | 247° |
| 2026-05-05 23:09 | 55.49614 | 174.70695 | 33887 ft | 460 kts | 247° |
| 2026-05-05 23:10 | 55.47553 | 174.59996 | 33865 ft | 463 kts | 247° |
| 2026-05-05 23:10 | 55.45489 | 174.49329 | 33873 ft | 463 kts | 246° |
| 2026-05-05 23:11 | 55.43414 | 174.38672 | 33870 ft | 464 kts | 246° |
| 2026-05-05 23:11 | 55.41307 | 174.27905 | 33842 ft | 465 kts | 246° |
| 2026-05-05 23:12 | 55.39205 | 174.17224 | 33832 ft | 464 kts | 245° |
| 2026-05-05 23:12 | 55.37102 | 174.06601 | 33844 ft | 465 kts | 245° |
| 2026-05-05 23:13 | 55.34964 | 173.95856 | 33811 ft | 468 kts | 245° |
| 2026-05-05 23:13 | 55.32820 | 173.85141 | 33830 ft | 467 kts | 245° |
| 2026-05-05 23:14 | 55.30671 | 173.74454 | 33819 ft | 467 kts | 245° |
| 2026-05-05 23:14 | 55.28500 | 173.63725 | 33803 ft | 469 kts | 245° |
| 2026-05-05 23:15 | 55.26321 | 173.53012 | 33793 ft | 470 kts | 245° |
| 2026-05-05 23:15 | 55.24127 | 173.42276 | 33803 ft | 469 kts | 245° |
| 2026-05-05 23:16 | 55.21913 | 173.31512 | 33767 ft | 470 kts | 244° |
| 2026-05-05 23:16 | 55.19710 | 173.20850 | 33767 ft | 470 kts | 244° |
| 2026-05-05 23:17 | 55.17482 | 173.10132 | 33747 ft | 472 kts | 244° |
| 2026-05-05 23:17 | 55.15227 | 172.99332 | 33726 ft | 473 kts | 244° |
| 2026-05-05 23:18 | 55.12970 | 172.88586 | 33719 ft | 474 kts | 244° |
| 2026-05-05 23:18 | 55.10705 | 172.77859 | 33725 ft | 475 kts | 244° |
| 2026-05-05 23:19 | 55.08426 | 172.67120 | 33704 ft | 473 kts | 244° |
| 2026-05-05 23:19 | 55.06137 | 172.56392 | 33708 ft | 474 kts | 244° |
| 2026-05-05 23:20 | 55.03841 | 172.45686 | 33694 ft | 474 kts | 244° |
| 2026-05-05 23:20 | 55.01516 | 172.34907 | 33692 ft | 476 kts | 243° |
| 2026-05-05 23:21 | 54.99210 | 172.24262 | 33677 ft | 473 kts | 243° |
| 2026-05-05 23:21 | 54.96883 | 172.13585 | 33668 ft | 475 kts | 243° |
| 2026-05-05 23:22 | 54.94510 | 172.02940 | 33634 ft | 472 kts | 239° |
| 2026-05-05 23:22 | 54.91040 | 171.93460 | 33644 ft | 462 kts | 227° |
| 2026-05-05 23:23 | 54.87146 | 171.84694 | 33661 ft | 461 kts | 226° |
| 2026-05-05 23:23 | 54.83146 | 171.76030 | 33645 ft | 458 kts | 225° |
| 2026-05-05 23:24 | 54.79163 | 171.67561 | 33635 ft | 457 kts | 225° |
| 2026-05-05 23:24 | 54.75153 | 171.59117 | 33633 ft | 456 kts | 225° |
| 2026-05-05 23:25 | 54.71099 | 171.50636 | 33644 ft | 458 kts | 225° |
| 2026-05-05 23:25 | 54.67077 | 171.42253 | 33608 ft | 456 kts | 225° |
| 2026-05-05 23:26 | 54.63040 | 171.33873 | 33608 ft | 456 kts | 224° |
| 2026-05-05 23:26 | 54.58997 | 171.25514 | 33592 ft | 457 kts | 224° |
| 2026-05-05 23:27 | 54.54960 | 171.17192 | 33581 ft | 454 kts | 225° |
| 2026-05-05 23:27 | 54.50911 | 171.08876 | 33565 ft | 454 kts | 224° |
| 2026-05-05 23:28 | 54.46849 | 171.00560 | 33576 ft | 456 kts | 224° |
| 2026-05-05 23:28 | 54.42799 | 170.92297 | 33578 ft | 454 kts | 224° |
| 2026-05-05 23:29 | 54.38739 | 170.84041 | 33530 ft | 453 kts | 225° |
| 2026-05-05 23:29 | 54.34676 | 170.75807 | 33555 ft | 453 kts | 225° |
| 2026-05-05 23:30 | 54.30619 | 170.67615 | 33543 ft | 453 kts | 225° |
| 2026-05-05 23:30 | 54.26566 | 170.59456 | 33546 ft | 454 kts | 225° |
| 2026-05-05 23:31 | 54.22489 | 170.51277 | 33539 ft | 454 kts | 225° |
| 2026-05-05 23:31 | 54.18415 | 170.43129 | 33511 ft | 453 kts | 225° |
| 2026-05-05 23:32 | 54.14333 | 170.34993 | 33508 ft | 452 kts | 225° |
| 2026-05-05 23:32 | 54.10263 | 170.26909 | 33524 ft | 452 kts | 225° |
| 2026-05-05 23:33 | 54.06160 | 170.18785 | 33503 ft | 452 kts | 225° |
| 2026-05-05 23:33 | 54.02105 | 170.10783 | 33492 ft | 450 kts | 225° |
| 2026-05-05 23:34 | 53.98009 | 170.02725 | 33491 ft | 450 kts | 225° |
| 2026-05-05 23:34 | 53.93911 | 169.94694 | 33483 ft | 452 kts | 225° |
| 2026-05-05 23:35 | 53.89817 | 169.86693 | 33475 ft | 452 kts | 225° |
| 2026-05-05 23:35 | 53.85709 | 169.78690 | 33480 ft | 451 kts | 225° |
| 2026-05-05 23:36 | 53.81622 | 169.70756 | 33477 ft | 451 kts | 225° |
| 2026-05-05 23:36 | 53.77490 | 169.62759 | 33483 ft | 452 kts | 225° |
| 2026-05-05 23:37 | 53.73383 | 169.54837 | 33474 ft | 450 kts | 225° |
| 2026-05-05 23:37 | 53.69282 | 169.46953 | 33479 ft | 450 kts | 225° |
| 2026-05-05 23:38 | 53.65157 | 169.39047 | 33472 ft | 449 kts | 225° |
| 2026-05-05 23:38 | 53.61490 | 169.30559 | 33483 ft | 454 kts | 238° |
| 2026-05-05 23:39 | 53.58529 | 169.21234 | 33467 ft | 456 kts | 237° |
| 2026-05-05 23:39 | 53.55536 | 169.11890 | 33463 ft | 456 kts | 237° |
| 2026-05-05 23:40 | 53.52536 | 169.02557 | 33469 ft | 454 kts | 237° |
| 2026-05-05 23:40 | 53.49544 | 168.93292 | 33458 ft | 455 kts | 237° |
| 2026-05-05 23:41 | 53.46541 | 168.84023 | 33466 ft | 454 kts | 238° |
| 2026-05-05 23:41 | 53.43511 | 168.74705 | 33456 ft | 454 kts | 238° |
| 2026-05-05 23:42 | 53.40497 | 168.65477 | 33445 ft | 455 kts | 238° |
| 2026-05-05 23:42 | 53.37458 | 168.56204 | 33446 ft | 456 kts | 238° |
| 2026-05-05 23:43 | 53.34412 | 168.46944 | 33452 ft | 455 kts | 238° |
| 2026-05-05 23:43 | 53.31365 | 168.37718 | 33448 ft | 456 kts | 238° |
| 2026-05-05 23:44 | 53.28318 | 168.28546 | 33446 ft | 455 kts | 237° |
| 2026-05-05 23:44 | 53.25238 | 168.19319 | 33442 ft | 455 kts | 237° |
| 2026-05-05 23:45 | 53.22168 | 168.10158 | 33438 ft | 456 kts | 237° |
| 2026-05-05 23:45 | 53.19093 | 168.01013 | 33439 ft | 455 kts | 237° |
| 2026-05-05 23:46 | 53.15983 | 167.91801 | 33424 ft | 454 kts | 237° |
| 2026-05-05 23:46 | 53.12903 | 167.82712 | 33422 ft | 455 kts | 237° |
| 2026-05-05 23:47 | 53.09801 | 167.73592 | 33432 ft | 456 kts | 238° |
| 2026-05-05 23:47 | 53.06683 | 167.64458 | 33421 ft | 456 kts | 238° |
| 2026-05-05 23:48 | 53.03566 | 167.55359 | 33426 ft | 455 kts | 238° |
| 2026-05-05 23:48 | 53.00424 | 167.46219 | 33432 ft | 455 kts | 238° |
| 2026-05-05 23:49 | 52.97309 | 167.37193 | 33425 ft | 454 kts | 238° |
| 2026-05-05 23:49 | 52.94168 | 167.28126 | 33412 ft | 453 kts | 237° |
| 2026-05-05 23:50 | 52.91047 | 167.19148 | 33421 ft | 453 kts | 237° |
| 2026-05-05 23:50 | 52.87892 | 167.10106 | 33424 ft | 454 kts | 237° |
| 2026-05-05 23:51 | 52.84748 | 167.01128 | 33427 ft | 455 kts | 237° |
| 2026-05-05 23:51 | 52.81571 | 166.92088 | 33421 ft | 454 kts | 237° |
| 2026-05-05 23:52 | 52.78421 | 166.83157 | 33415 ft | 454 kts | 237° |
| 2026-05-05 23:52 | 52.75240 | 166.74170 | 33415 ft | 454 kts | 238° |
| 2026-05-05 23:53 | 52.72065 | 166.65233 | 33415 ft | 453 kts | 238° |
| 2026-05-05 23:53 | 52.68898 | 166.56348 | 33405 ft | 453 kts | 238° |
| 2026-05-05 23:54 | 52.65696 | 166.47398 | 33410 ft | 453 kts | 238° |
| 2026-05-05 23:54 | 52.62518 | 166.38548 | 33411 ft | 452 kts | 238° |
| 2026-05-05 23:55 | 52.59324 | 166.29683 | 33407 ft | 453 kts | 237° |
| 2026-05-05 23:55 | 52.56115 | 166.20810 | 33404 ft | 452 kts | 237° |
| 2026-05-05 23:56 | 52.52913 | 166.11984 | 33407 ft | 452 kts | 237° |
| 2026-05-05 23:56 | 52.49697 | 166.03154 | 33402 ft | 453 kts | 237° |
| 2026-05-05 23:57 | 52.46474 | 165.94334 | 33402 ft | 452 kts | 237° |
| 2026-05-05 23:57 | 52.43249 | 165.85539 | 33389 ft | 453 kts | 238° |
| 2026-05-05 23:58 | 52.40023 | 165.76772 | 33390 ft | 453 kts | 238° |
| 2026-05-05 23:58 | 52.36765 | 165.67950 | 33384 ft | 453 kts | 238° |
| 2026-05-05 23:59 | 52.33504 | 165.59151 | 33384 ft | 454 kts | 238° |
| 2026-05-05 23:59 | 52.30252 | 165.50404 | 33397 ft | 453 kts | 238° |
| 2026-05-06 00:00 | 52.26987 | 165.41653 | 33386 ft | 451 kts | 238° |
| 2026-05-06 00:00 | 52.23723 | 165.32933 | 33388 ft | 452 kts | 237° |
| 2026-05-06 00:01 | 52.20444 | 165.24210 | 33389 ft | 453 kts | 237° |
| 2026-05-06 00:01 | 52.17176 | 165.15541 | 33389 ft | 454 kts | 237° |
| 2026-05-06 00:02 | 52.13880 | 165.06827 | 33387 ft | 453 kts | 237° |
| 2026-05-06 00:02 | 52.10587 | 164.98152 | 33383 ft | 453 kts | 237° |
| 2026-05-06 00:03 | 52.07269 | 164.89441 | 33379 ft | 452 kts | 237° |
| 2026-05-06 00:03 | 52.03992 | 164.80867 | 33382 ft | 452 kts | 237° |
| 2026-05-06 00:04 | 52.00672 | 164.72208 | 33381 ft | 452 kts | 238° |
| 2026-05-06 00:04 | 51.97345 | 164.63562 | 33388 ft | 452 kts | 238° |
| 2026-05-06 00:05 | 51.92364 | 164.50671 | 33379 ft | 453 kts | 238° |
| 2026-05-06 00:06 | 51.89036 | 164.42093 | 33385 ft | 453 kts | 238° |
| 2026-05-06 00:06 | 51.85699 | 164.33522 | 33384 ft | 453 kts | 237° |
| 2026-05-06 00:07 | 51.82335 | 164.24910 | 33399 ft | 453 kts | 237° |
| 2026-05-06 00:07 | 51.78993 | 164.16386 | 33381 ft | 453 kts | 237° |
| 2026-05-06 00:08 | 51.75604 | 164.07768 | 33378 ft | 454 kts | 237° |
| 2026-05-06 00:08 | 51.72236 | 163.99234 | 33398 ft | 453 kts | 237° |
| 2026-05-06 00:09 | 51.68854 | 163.90689 | 33403 ft | 454 kts | 238° |
| 2026-05-06 00:09 | 51.65479 | 163.82193 | 33396 ft | 454 kts | 237° |
| 2026-05-06 00:10 | 51.62081 | 163.73666 | 33404 ft | 453 kts | 237° |
| 2026-05-06 00:10 | 51.58696 | 163.65199 | 33390 ft | 453 kts | 237° |
| 2026-05-06 00:11 | 51.55294 | 163.56717 | 33387 ft | 453 kts | 238° |
| 2026-05-06 00:11 | 51.51895 | 163.48271 | 33404 ft | 452 kts | 238° |
| 2026-05-06 00:12 | 51.48467 | 163.39781 | 33406 ft | 452 kts | 238° |
| 2026-05-06 00:12 | 51.45058 | 163.31364 | 33411 ft | 453 kts | 237° |
| 2026-05-06 00:13 | 51.41643 | 163.22958 | 33427 ft | 452 kts | 237° |
| 2026-05-06 00:13 | 51.38209 | 163.14537 | 33426 ft | 452 kts | 237° |
| 2026-05-06 00:14 | 51.34801 | 163.06204 | 33433 ft | 451 kts | 237° |
| 2026-05-06 00:14 | 51.31370 | 162.97842 | 33435 ft | 451 kts | 237° |
| 2026-05-06 00:15 | 51.27934 | 162.89496 | 33429 ft | 452 kts | 237° |
| 2026-05-06 00:15 | 51.24477 | 162.81128 | 33433 ft | 452 kts | 237° |
| 2026-05-06 00:16 | 51.21050 | 162.72855 | 33439 ft | 451 kts | 237° |
| 2026-05-06 00:16 | 51.17606 | 162.64569 | 33446 ft | 449 kts | 237° |
| 2026-05-06 00:17 | 51.14162 | 162.56310 | 33441 ft | 449 kts | 237° |
| 2026-05-06 00:17 | 51.10720 | 162.48082 | 33433 ft | 449 kts | 238° |
| 2026-05-06 00:18 | 51.07253 | 162.39821 | 33458 ft | 448 kts | 238° |
| 2026-05-06 00:18 | 51.03796 | 162.31609 | 33463 ft | 448 kts | 237° |
| 2026-05-06 00:19 | 51.00340 | 162.23422 | 33459 ft | 448 kts | 237° |
| 2026-05-06 00:19 | 50.96901 | 162.15306 | 33475 ft | 447 kts | 237° |
| 2026-05-06 00:20 | 50.93437 | 162.07153 | 33475 ft | 447 kts | 237° |
| 2026-05-06 00:20 | 50.89973 | 161.99028 | 33479 ft | 447 kts | 237° |
| 2026-05-06 00:21 | 50.86499 | 161.90904 | 33477 ft | 447 kts | 237° |
| 2026-05-06 00:21 | 50.83041 | 161.82842 | 33489 ft | 445 kts | 237° |
| 2026-05-06 00:22 | 50.79570 | 161.74776 | 33492 ft | 444 kts | 238° |
| 2026-05-06 00:22 | 50.76123 | 161.66788 | 33487 ft | 443 kts | 238° |
| 2026-05-06 00:23 | 50.72647 | 161.58758 | 33500 ft | 443 kts | 238° |
| 2026-05-06 00:23 | 50.69195 | 161.50809 | 33493 ft | 443 kts | 238° |
| 2026-05-06 00:24 | 50.65739 | 161.42874 | 33504 ft | 441 kts | 238° |
| 2026-05-06 00:24 | 50.62275 | 161.34943 | 33508 ft | 440 kts | 237° |
| 2026-05-06 00:25 | 50.58798 | 161.27010 | 33529 ft | 442 kts | 237° |
| 2026-05-06 00:25 | 50.55320 | 161.19096 | 33516 ft | 441 kts | 237° |
| 2026-05-06 00:26 | 50.51837 | 161.11195 | 33529 ft | 440 kts | 237° |
| 2026-05-06 00:26 | 50.48381 | 161.03380 | 33534 ft | 439 kts | 237° |
| 2026-05-06 00:27 | 50.44893 | 160.95517 | 33542 ft | 439 kts | 237° |
| 2026-05-06 00:27 | 50.41418 | 160.87703 | 33545 ft | 439 kts | 238° |
| 2026-05-06 00:28 | 50.37938 | 160.79904 | 33542 ft | 438 kts | 238° |
| 2026-05-06 00:28 | 50.34437 | 160.72080 | 33549 ft | 438 kts | 238° |
| 2026-05-06 00:29 | 50.30959 | 160.64329 | 33534 ft | 439 kts | 238° |
| 2026-05-06 00:29 | 50.27456 | 160.56547 | 33541 ft | 438 kts | 238° |
| 2026-05-06 00:30 | 50.23961 | 160.48805 | 33546 ft | 439 kts | 238° |
| 2026-05-06 00:30 | 50.20454 | 160.41058 | 33545 ft | 439 kts | 238° |
| 2026-05-06 00:31 | 50.16922 | 160.33311 | 33561 ft | 440 kts | 237° |
| 2026-05-06 00:31 | 50.13395 | 160.25604 | 33562 ft | 440 kts | 237° |
| 2026-05-06 00:32 | 50.09850 | 160.17880 | 33564 ft | 439 kts | 237° |
| 2026-05-06 00:32 | 50.06303 | 160.10176 | 33579 ft | 438 kts | 237° |
| 2026-05-06 00:33 | 50.02761 | 160.02507 | 33591 ft | 439 kts | 237° |
| 2026-05-06 00:33 | 49.99193 | 159.94800 | 33593 ft | 438 kts | 237° |
| 2026-05-06 00:34 | 49.95654 | 159.87180 | 33593 ft | 439 kts | 238° |
| 2026-05-06 00:34 | 49.92081 | 159.79509 | 33576 ft | 437 kts | 237° |
| 2026-05-06 00:35 | 49.88549 | 159.71947 | 33575 ft | 436 kts | 238° |
| 2026-05-06 00:35 | 49.84996 | 159.64363 | 33590 ft | 435 kts | 238° |
| 2026-05-06 00:36 | 49.81459 | 159.56833 | 33581 ft | 433 kts | 238° |
| 2026-05-06 00:36 | 49.77919 | 159.49316 | 33594 ft | 433 kts | 238° |
| 2026-05-06 00:37 | 49.74382 | 159.41834 | 33608 ft | 433 kts | 238° |
| 2026-05-06 00:37 | 49.70839 | 159.34361 | 33606 ft | 431 kts | 237° |
| 2026-05-06 00:38 | 49.67233 | 159.26984 | 33623 ft | 432 kts | 237° |
| 2026-05-06 00:38 | 49.63624 | 159.19623 | 33621 ft | 431 kts | 237° |
| 2026-05-06 00:39 | 49.60035 | 159.12321 | 33629 ft | 429 kts | 237° |
| 2026-05-06 00:39 | 49.56455 | 159.05060 | 33633 ft | 428 kts | 237° |
| 2026-05-06 00:40 | 49.52847 | 158.97760 | 33627 ft | 427 kts | 237° |
| 2026-05-06 00:40 | 49.49280 | 158.90561 | 33633 ft | 427 kts | 237° |
| 2026-05-06 00:41 | 49.45669 | 158.83296 | 33626 ft | 426 kts | 237° |
| 2026-05-06 00:41 | 49.42102 | 158.76135 | 33626 ft | 426 kts | 237° |
| 2026-05-06 00:42 | 49.38491 | 158.68909 | 33643 ft | 427 kts | 238° |
| 2026-05-06 00:42 | 49.34895 | 158.61731 | 33628 ft | 425 kts | 238° |
| 2026-05-06 00:43 | 49.31309 | 158.54594 | 33632 ft | 424 kts | 238° |
| 2026-05-06 00:43 | 49.27716 | 158.47459 | 33632 ft | 423 kts | 238° |
| 2026-05-06 00:44 | 49.24131 | 158.40359 | 33635 ft | 422 kts | 238° |
| 2026-05-06 00:44 | 49.20564 | 158.33316 | 33647 ft | 423 kts | 237° |
| 2026-05-06 00:45 | 49.16957 | 158.26211 | 33653 ft | 424 kts | 237° |
| 2026-05-06 00:45 | 49.13373 | 158.19173 | 33651 ft | 422 kts | 237° |
| 2026-05-06 00:46 | 49.09775 | 158.12123 | 33660 ft | 423 kts | 238° |
| 2026-05-06 00:46 | 49.06161 | 158.05064 | 33658 ft | 421 kts | 238° |
| 2026-05-06 00:47 | 49.02569 | 157.98061 | 33653 ft | 421 kts | 237° |
| 2026-05-06 00:47 | 48.98977 | 157.91080 | 33656 ft | 421 kts | 238° |
| 2026-05-06 00:48 | 48.95385 | 157.84116 | 33673 ft | 420 kts | 238° |
| 2026-05-06 00:48 | 48.91781 | 157.77148 | 33651 ft | 417 kts | 238° |
| 2026-05-06 00:49 | 48.88217 | 157.70273 | 33654 ft | 418 kts | 238° |
| 2026-05-06 00:49 | 48.84612 | 157.63339 | 33671 ft | 418 kts | 238° |
| 2026-05-06 00:50 | 48.81031 | 157.56468 | 33659 ft | 417 kts | 238° |
| 2026-05-06 00:50 | 48.77451 | 157.49617 | 33668 ft | 416 kts | 238° |
| 2026-05-06 00:51 | 48.73851 | 157.42744 | 33669 ft | 417 kts | 238° |
| 2026-05-06 00:51 | 48.70251 | 157.35892 | 33670 ft | 416 kts | 238° |
| 2026-05-06 00:52 | 48.66645 | 157.29044 | 33684 ft | 418 kts | 238° |
| 2026-05-06 00:52 | 48.63055 | 157.22241 | 33687 ft | 418 kts | 238° |
| 2026-05-06 00:53 | 48.59441 | 157.15413 | 33686 ft | 416 kts | 238° |
| 2026-05-06 00:53 | 48.55824 | 157.08597 | 33680 ft | 416 kts | 238° |
| 2026-05-06 00:54 | 48.52222 | 157.01829 | 33684 ft | 415 kts | 238° |
| 2026-05-06 00:54 | 48.48607 | 156.95047 | 33671 ft | 416 kts | 238° |
| 2026-05-06 00:55 | 48.44994 | 156.88287 | 33687 ft | 416 kts | 238° |
| 2026-05-06 00:55 | 48.41388 | 156.81564 | 33668 ft | 414 kts | 238° |
| 2026-05-06 00:56 | 48.37761 | 156.74811 | 33681 ft | 415 kts | 238° |
| 2026-05-06 00:56 | 48.34164 | 156.68135 | 33674 ft | 413 kts | 239° |
| 2026-05-06 00:57 | 48.30558 | 156.61458 | 33681 ft | 414 kts | 239° |
| 2026-05-06 00:57 | 48.26924 | 156.54744 | 33690 ft | 414 kts | 239° |
| 2026-05-06 00:58 | 48.23303 | 156.48074 | 33671 ft | 415 kts | 239° |
| 2026-05-06 00:58 | 48.19664 | 156.41383 | 33683 ft | 414 kts | 239° |
| 2026-05-06 00:59 | 48.16061 | 156.34784 | 33691 ft | 411 kts | 238° |
| 2026-05-06 00:59 | 48.12447 | 156.28168 | 33703 ft | 414 kts | 238° |
| 2026-05-06 01:00 | 48.08784 | 156.21483 | 33903 ft | 417 kts | 239° |
| 2026-05-06 01:00 | 48.06959 | 156.18158 | 34188 ft | 417 kts | 238° |
| 2026-05-06 01:00 | 48.05141 | 156.14854 | 34596 ft | 413 kts | 238° |
| 2026-05-06 01:00 | 48.03321 | 156.11548 | 34861 ft | 413 kts | 238° |
| 2026-05-06 01:01 | 48.01506 | 156.08250 | 34956 ft | 417 kts | 238° |
| 2026-05-06 01:01 | 47.99653 | 156.04898 | 35404 ft | 411 kts | 238° |
| 2026-05-06 01:01 | 47.97871 | 156.01675 | 35681 ft | 406 kts | 238° |
| 2026-05-06 01:02 | 47.94311 | 155.95241 | 35712 ft | 404 kts | 238° |
| 2026-05-06 01:02 | 47.90737 | 155.88797 | 35692 ft | 407 kts | 238° |
| 2026-05-06 01:03 | 47.87125 | 155.82300 | 35703 ft | 409 kts | 238° |
| 2026-05-06 01:03 | 47.83498 | 155.75797 | 35705 ft | 408 kts | 238° |
| 2026-05-06 01:04 | 47.79893 | 155.69350 | 35700 ft | 406 kts | 238° |
| 2026-05-06 01:04 | 47.76299 | 155.62932 | 35713 ft | 406 kts | 238° |
| 2026-05-06 01:05 | 47.72701 | 155.56526 | 35706 ft | 406 kts | 238° |
| 2026-05-06 01:05 | 47.69094 | 155.50116 | 35696 ft | 404 kts | 238° |
| 2026-05-06 01:06 | 47.65511 | 155.43765 | 35700 ft | 404 kts | 238° |
| 2026-05-06 01:06 | 47.61915 | 155.37407 | 35698 ft | 402 kts | 238° |
| 2026-05-06 01:07 | 47.54821 | 155.24904 | 35708 ft | 402 kts | 238° |
| 2026-05-06 01:08 | 47.51237 | 155.18611 | 35715 ft | 404 kts | 238° |
| 2026-05-06 01:08 | 47.47626 | 155.12283 | 35732 ft | 402 kts | 238° |
| 2026-05-06 01:09 | 47.44016 | 155.05974 | 35741 ft | 401 kts | 238° |
| 2026-05-06 01:09 | 47.40431 | 154.99725 | 35727 ft | 400 kts | 238° |
| 2026-05-06 01:10 | 47.36846 | 154.93486 | 35726 ft | 401 kts | 238° |
| 2026-05-06 01:10 | 47.33242 | 154.87231 | 35756 ft | 400 kts | 238° |
| 2026-05-06 01:11 | 47.29652 | 154.81015 | 35735 ft | 399 kts | 238° |
| 2026-05-06 01:11 | 47.26055 | 154.74799 | 35741 ft | 399 kts | 239° |
| 2026-05-06 01:12 | 47.22473 | 154.68622 | 35765 ft | 399 kts | 239° |
| 2026-05-06 01:12 | 47.18897 | 154.62470 | 35765 ft | 399 kts | 239° |
| 2026-05-06 01:13 | 47.15284 | 154.56271 | 35766 ft | 397 kts | 238° |
| 2026-05-06 01:13 | 47.11712 | 154.50154 | 35734 ft | 397 kts | 238° |
| 2026-05-06 01:14 | 47.06308 | 154.40927 | 35758 ft | 398 kts | 238° |
| 2026-05-06 01:14 | 47.02742 | 154.34859 | 35748 ft | 397 kts | 238° |
| 2026-05-06 01:15 | 46.99131 | 154.28722 | 35770 ft | 397 kts | 237° |
| 2026-05-06 01:15 | 46.95532 | 154.22626 | 35775 ft | 395 kts | 238° |
| 2026-05-06 01:16 | 46.91949 | 154.16565 | 35768 ft | 397 kts | 238° |
| 2026-05-06 01:16 | 46.88350 | 154.10490 | 35755 ft | 397 kts | 238° |
| 2026-05-06 01:17 | 46.84740 | 154.04413 | 35749 ft | 397 kts | 238° |
| 2026-05-06 01:17 | 46.81141 | 153.98369 | 35767 ft | 397 kts | 238° |
| 2026-05-06 01:18 | 46.77537 | 153.92328 | 35759 ft | 397 kts | 237° |
| 2026-05-06 01:18 | 46.73923 | 153.86284 | 35761 ft | 395 kts | 238° |
| 2026-05-06 01:19 | 46.70320 | 153.80272 | 35768 ft | 395 kts | 238° |
| 2026-05-06 01:19 | 46.66709 | 153.74257 | 35770 ft | 397 kts | 238° |
| 2026-05-06 01:20 | 46.63076 | 153.68224 | 35786 ft | 396 kts | 238° |
| 2026-05-06 01:20 | 46.59463 | 153.62233 | 35794 ft | 397 kts | 237° |
| 2026-05-06 01:21 | 46.55827 | 153.56221 | 35790 ft | 396 kts | 238° |
| 2026-05-06 01:21 | 46.52216 | 153.50261 | 35791 ft | 395 kts | 237° |
| 2026-05-06 01:22 | 46.48584 | 153.44282 | 35794 ft | 395 kts | 238° |
| 2026-05-06 01:22 | 46.44948 | 153.38304 | 35792 ft | 396 kts | 237° |
| 2026-05-06 01:23 | 46.41329 | 153.32373 | 35819 ft | 396 kts | 237° |
| 2026-05-06 01:23 | 46.37665 | 153.26375 | 35816 ft | 398 kts | 237° |
| 2026-05-06 01:24 | 46.35835 | 153.23389 | 35614 ft | 396 kts | 237° |
| 2026-05-06 01:24 | 46.34031 | 153.20450 | 35786 ft | 391 kts | 237° |
| 2026-05-06 01:24 | 46.30408 | 153.14543 | 35821 ft | 395 kts | 237° |
| 2026-05-06 01:25 | 46.26756 | 153.08604 | 35806 ft | 397 kts | 237° |
| 2026-05-06 01:25 | 46.23089 | 153.02657 | 35830 ft | 401 kts | 237° |
| 2026-05-06 01:26 | 46.19389 | 152.96719 | 35825 ft | 399 kts | 237° |
| 2026-05-06 01:26 | 46.15680 | 152.90796 | 35815 ft | 399 kts | 237° |
| 2026-05-06 01:27 | 46.11972 | 152.84885 | 35819 ft | 400 kts | 236° |
| 2026-05-06 01:27 | 46.08251 | 152.78975 | 35825 ft | 397 kts | 237° |
| 2026-05-06 01:28 | 46.04535 | 152.73077 | 35830 ft | 401 kts | 237° |
| 2026-05-06 01:28 | 46.00786 | 152.67142 | 35813 ft | 399 kts | 236° |
| 2026-05-06 01:29 | 45.97074 | 152.61279 | 35826 ft | 398 kts | 236° |
| 2026-05-06 01:29 | 45.93351 | 152.55411 | 35825 ft | 401 kts | 236° |
| 2026-05-06 01:30 | 45.89610 | 152.49530 | 35838 ft | 400 kts | 237° |
| 2026-05-06 01:30 | 45.85871 | 152.43663 | 35823 ft | 399 kts | 236° |
| 2026-05-06 01:31 | 45.82144 | 152.37825 | 35829 ft | 398 kts | 236° |
| 2026-05-06 01:31 | 45.78392 | 152.31963 | 35847 ft | 401 kts | 236° |
| 2026-05-06 01:32 | 45.74648 | 152.26125 | 35853 ft | 402 kts | 236° |
| 2026-05-06 01:32 | 45.70872 | 152.20248 | 35855 ft | 402 kts | 236° |
| 2026-05-06 01:33 | 45.67106 | 152.14403 | 35869 ft | 401 kts | 236° |
| 2026-05-06 01:33 | 45.63309 | 152.08519 | 35882 ft | 403 kts | 236° |
| 2026-05-06 01:34 | 45.59546 | 152.02704 | 35885 ft | 401 kts | 236° |
| 2026-05-06 01:34 | 45.55748 | 151.96845 | 35883 ft | 402 kts | 236° |
| 2026-05-06 01:35 | 45.51953 | 151.91003 | 35886 ft | 402 kts | 236° |
| 2026-05-06 01:35 | 45.48154 | 151.85169 | 35883 ft | 403 kts | 235° |
| 2026-05-06 01:36 | 45.44355 | 151.79344 | 35882 ft | 405 kts | 235° |
| 2026-05-06 01:36 | 45.40550 | 151.73524 | 35890 ft | 402 kts | 235° |
| 2026-05-06 01:37 | 45.36733 | 151.67700 | 35884 ft | 403 kts | 235° |
| 2026-05-06 01:37 | 45.32919 | 151.61891 | 35887 ft | 405 kts | 235° |
| 2026-05-06 01:38 | 45.29081 | 151.56058 | 35890 ft | 404 kts | 235° |
| 2026-05-06 01:38 | 45.25244 | 151.50238 | 35893 ft | 405 kts | 235° |
| 2026-05-06 01:39 | 45.21408 | 151.44434 | 35870 ft | 406 kts | 235° |
| 2026-05-06 01:39 | 45.17552 | 151.38609 | 35881 ft | 407 kts | 235° |
| 2026-05-06 01:40 | 45.13672 | 151.32764 | 35898 ft | 406 kts | 234° |
| 2026-05-06 01:40 | 45.09819 | 151.26968 | 35906 ft | 408 kts | 234° |
| 2026-05-06 01:41 | 45.01885 | 151.15077 | 35901 ft | 409 kts | 234° |
| 2026-05-06 01:42 | 44.97964 | 151.09218 | 35913 ft | 410 kts | 234° |
| 2026-05-06 01:42 | 44.94057 | 151.03394 | 35915 ft | 410 kts | 234° |
| 2026-05-06 01:43 | 44.90152 | 150.97586 | 35907 ft | 409 kts | 234° |
| 2026-05-06 01:43 | 44.86238 | 150.91774 | 35915 ft | 410 kts | 234° |
| 2026-05-06 01:44 | 44.82309 | 150.85954 | 35912 ft | 410 kts | 234° |
| 2026-05-06 01:44 | 44.78405 | 150.80182 | 35924 ft | 410 kts | 234° |
| 2026-05-06 01:45 | 44.74481 | 150.74393 | 35924 ft | 410 kts | 233° |
| 2026-05-06 01:45 | 44.70545 | 150.68599 | 35931 ft | 410 kts | 234° |
| 2026-05-06 01:46 | 44.66621 | 150.62836 | 35926 ft | 410 kts | 234° |
| 2026-05-06 01:46 | 44.62691 | 150.57074 | 35930 ft | 410 kts | 233° |
| 2026-05-06 01:47 | 44.58762 | 150.51325 | 35931 ft | 410 kts | 233° |
| 2026-05-06 01:47 | 44.54805 | 150.45549 | 35933 ft | 410 kts | 233° |
| 2026-05-06 01:48 | 44.50866 | 150.39810 | 35935 ft | 411 kts | 233° |
| 2026-05-06 01:48 | 44.46909 | 150.34058 | 35940 ft | 411 kts | 233° |
| 2026-05-06 01:49 | 44.42951 | 150.28316 | 35951 ft | 413 kts | 233° |
| 2026-05-06 01:49 | 44.38987 | 150.22577 | 35956 ft | 413 kts | 233° |
| 2026-05-06 01:50 | 44.35005 | 150.16824 | 35960 ft | 411 kts | 233° |
| 2026-05-06 01:50 | 44.31039 | 150.11107 | 35963 ft | 411 kts | 232° |
| 2026-05-06 01:51 | 44.27072 | 150.05397 | 35970 ft | 413 kts | 232° |
| 2026-05-06 01:51 | 44.23063 | 149.99643 | 35960 ft | 412 kts | 232° |
| 2026-05-06 01:52 | 44.19075 | 149.93929 | 35966 ft | 413 kts | 232° |
| 2026-05-06 01:52 | 44.15073 | 149.88207 | 35973 ft | 414 kts | 232° |
| 2026-05-06 01:53 | 44.11067 | 149.82491 | 35973 ft | 413 kts | 232° |
| 2026-05-06 01:53 | 44.07068 | 149.76794 | 35975 ft | 413 kts | 232° |
| 2026-05-06 01:54 | 44.03072 | 149.71118 | 35968 ft | 414 kts | 232° |
| 2026-05-06 01:54 | 43.99042 | 149.65404 | 35975 ft | 414 kts | 232° |
| 2026-05-06 01:55 | 43.95022 | 149.59714 | 35972 ft | 415 kts | 232° |
| 2026-05-06 01:55 | 43.91007 | 149.54044 | 35980 ft | 415 kts | 232° |
| 2026-05-06 01:56 | 43.86975 | 149.48360 | 35978 ft | 415 kts | 232° |
| 2026-05-06 01:56 | 43.82911 | 149.42645 | 35979 ft | 416 kts | 232° |
| 2026-05-06 01:57 | 43.78865 | 149.36966 | 35978 ft | 416 kts | 232° |
| 2026-05-06 01:57 | 43.74818 | 149.31296 | 35996 ft | 417 kts | 231° |
| 2026-05-06 01:58 | 43.70737 | 149.25592 | 35997 ft | 417 kts | 231° |
| 2026-05-06 01:58 | 43.66653 | 149.19894 | 35997 ft | 418 kts | 231° |
| 2026-05-06 01:59 | 43.62586 | 149.14235 | 35992 ft | 418 kts | 231° |
| 2026-05-06 01:59 | 43.58491 | 149.08545 | 35996 ft | 417 kts | 231° |
| 2026-05-06 02:00 | 43.54411 | 149.02889 | 36000 ft | 419 kts | 231° |
| 2026-05-06 02:00 | 43.50326 | 148.97237 | 35994 ft | 419 kts | 231° |
| 2026-05-06 02:01 | 43.46207 | 148.91548 | 36004 ft | 419 kts | 231° |
| 2026-05-06 02:01 | 43.42099 | 148.85889 | 35999 ft | 420 kts | 231° |
| 2026-05-06 02:02 | 43.38005 | 148.80258 | 36005 ft | 419 kts | 231° |
| 2026-05-06 02:02 | 43.33854 | 148.74561 | 36015 ft | 421 kts | 230° |
| 2026-05-06 02:03 | 43.29741 | 148.68929 | 36013 ft | 420 kts | 230° |
| 2026-05-06 02:03 | 43.25612 | 148.63284 | 36022 ft | 420 kts | 230° |
| 2026-05-06 02:04 | 43.21471 | 148.57636 | 36026 ft | 422 kts | 230° |
| 2026-05-06 02:04 | 43.17300 | 148.51959 | 36024 ft | 422 kts | 230° |
| 2026-05-06 02:05 | 43.13145 | 148.46313 | 36025 ft | 422 kts | 230° |
| 2026-05-06 02:05 | 43.08983 | 148.40671 | 36021 ft | 422 kts | 230° |
| 2026-05-06 02:06 | 43.04846 | 148.35074 | 36023 ft | 423 kts | 230° |
| 2026-05-06 02:06 | 43.00647 | 148.29404 | 36037 ft | 425 kts | 229° |
| 2026-05-06 02:07 | 42.96476 | 148.23784 | 36041 ft | 424 kts | 229° |
| 2026-05-06 02:07 | 42.92285 | 148.18149 | 36048 ft | 425 kts | 229° |
| 2026-05-06 02:08 | 42.88051 | 148.12465 | 36026 ft | 425 kts | 229° |
| 2026-05-06 02:08 | 42.83845 | 148.06831 | 36041 ft | 425 kts | 229° |
| 2026-05-06 02:09 | 42.79649 | 148.01222 | 36052 ft | 426 kts | 229° |
| 2026-05-06 02:09 | 42.75435 | 147.95601 | 36044 ft | 426 kts | 229° |
| 2026-05-06 02:10 | 42.71201 | 147.89964 | 36048 ft | 425 kts | 229° |
| 2026-05-06 02:10 | 42.67001 | 147.84384 | 36051 ft | 425 kts | 229° |
| 2026-05-06 02:11 | 42.62782 | 147.78790 | 36049 ft | 425 kts | 229° |
| 2026-05-06 02:11 | 42.58548 | 147.73187 | 36040 ft | 425 kts | 229° |
| 2026-05-06 02:12 | 42.54313 | 147.67593 | 36052 ft | 426 kts | 229° |
| 2026-05-06 02:12 | 42.50102 | 147.62042 | 36039 ft | 425 kts | 229° |
| 2026-05-06 02:13 | 42.45853 | 147.56453 | 36041 ft | 426 kts | 229° |
| 2026-05-06 02:13 | 42.41632 | 147.50913 | 36046 ft | 425 kts | 229° |
| 2026-05-06 02:14 | 42.37374 | 147.45329 | 36060 ft | 426 kts | 229° |
| 2026-05-06 02:14 | 42.33145 | 147.39790 | 36047 ft | 426 kts | 229° |
| 2026-05-06 02:15 | 42.28891 | 147.34227 | 36041 ft | 425 kts | 228° |
| 2026-05-06 02:15 | 42.24638 | 147.28676 | 36072 ft | 427 kts | 228° |
| 2026-05-06 02:16 | 42.20380 | 147.23131 | 36063 ft | 424 kts | 228° |
| 2026-05-06 02:16 | 42.16157 | 147.17642 | 36060 ft | 425 kts | 228° |
| 2026-05-06 02:17 | 42.11922 | 147.12148 | 36067 ft | 425 kts | 228° |
| 2026-05-06 02:17 | 42.07668 | 147.06639 | 36061 ft | 424 kts | 228° |
| 2026-05-06 02:18 | 42.03421 | 147.01150 | 36061 ft | 425 kts | 228° |
| 2026-05-06 02:18 | 41.99177 | 146.95677 | 36067 ft | 425 kts | 228° |
| 2026-05-06 02:19 | 41.94920 | 146.90198 | 36065 ft | 425 kts | 228° |
| 2026-05-06 02:19 | 41.90667 | 146.84732 | 36070 ft | 424 kts | 228° |
| 2026-05-06 02:20 | 41.84305 | 146.76559 | 36085 ft | 423 kts | 228° |
| 2026-05-06 02:21 | 41.80050 | 146.71109 | 36063 ft | 422 kts | 228° |
| 2026-05-06 02:21 | 41.75808 | 146.65683 | 36092 ft | 423 kts | 228° |
| 2026-05-06 02:22 | 41.71577 | 146.60283 | 36080 ft | 421 kts | 228° |
| 2026-05-06 02:22 | 41.67342 | 146.54889 | 36083 ft | 421 kts | 228° |
| 2026-05-06 02:23 | 41.63111 | 146.49507 | 36071 ft | 421 kts | 228° |
| 2026-05-06 02:23 | 41.58905 | 146.44170 | 36083 ft | 419 kts | 228° |
| 2026-05-06 02:24 | 41.54707 | 146.38853 | 36110 ft | 419 kts | 228° |
| 2026-05-06 02:24 | 41.50474 | 146.33501 | 36107 ft | 418 kts | 227° |
| 2026-05-06 02:25 | 41.46263 | 146.28186 | 36117 ft | 419 kts | 227° |
| 2026-05-06 02:25 | 41.42056 | 146.22888 | 36116 ft | 416 kts | 227° |
| 2026-05-06 02:26 | 41.37833 | 146.17577 | 36131 ft | 418 kts | 227° |
| 2026-05-06 02:26 | 41.33624 | 146.12295 | 36111 ft | 415 kts | 227° |
| 2026-05-06 02:27 | 41.29457 | 146.07077 | 36139 ft | 414 kts | 227° |
| 2026-05-06 02:27 | 41.25254 | 146.01823 | 36134 ft | 415 kts | 228° |
| 2026-05-06 02:28 | 41.21065 | 145.96594 | 36152 ft | 414 kts | 227° |
| 2026-05-06 02:28 | 41.16882 | 145.91383 | 36124 ft | 414 kts | 227° |
| 2026-05-06 02:29 | 41.12696 | 145.86180 | 36136 ft | 414 kts | 227° |
| 2026-05-06 02:29 | 41.08489 | 145.80957 | 36123 ft | 414 kts | 227° |
| 2026-05-06 02:30 | 41.04319 | 145.75794 | 36133 ft | 413 kts | 227° |
| 2026-05-06 02:30 | 41.00112 | 145.70590 | 36130 ft | 412 kts | 227° |
| 2026-05-06 02:31 | 40.95938 | 145.65440 | 36136 ft | 412 kts | 228° |
| 2026-05-06 02:31 | 40.91777 | 145.60313 | 36140 ft | 411 kts | 228° |
| 2026-05-06 02:32 | 40.87595 | 145.55170 | 36132 ft | 411 kts | 228° |
| 2026-05-06 02:32 | 40.83408 | 145.50029 | 36129 ft | 409 kts | 228° |
| 2026-05-06 02:33 | 40.79264 | 145.44951 | 36146 ft | 408 kts | 228° |
| 2026-05-06 02:33 | 40.77905 | 145.43288 | 36137 ft | 408 kts | 228° |
| 2026-05-06 02:34 | 40.70988 | 145.34839 | 36134 ft | 407 kts | 227° |
| 2026-05-06 02:34 | 40.66829 | 145.29768 | 36153 ft | 407 kts | 227° |
| 2026-05-06 02:34 | 40.64754 | 145.27241 | 36401 ft | 408 kts | 228° |
| 2026-05-06 02:35 | 40.62688 | 145.24728 | 36175 ft | 409 kts | 227° |
| 2026-05-06 02:35 | 40.58521 | 145.19669 | 36160 ft | 406 kts | 228° |
| 2026-05-06 02:36 | 40.54378 | 145.14645 | 36167 ft | 407 kts | 228° |
| 2026-05-06 02:36 | 40.50196 | 145.09584 | 36145 ft | 407 kts | 227° |
| 2026-05-06 02:37 | 40.46071 | 145.04602 | 36152 ft | 404 kts | 227° |
| 2026-05-06 02:37 | 40.41935 | 144.99614 | 36153 ft | 405 kts | 228° |
| 2026-05-06 02:38 | 40.37799 | 144.94632 | 36160 ft | 406 kts | 227° |
| 2026-05-06 02:38 | 40.33664 | 144.89662 | 36144 ft | 403 kts | 227° |
| 2026-05-06 02:39 | 40.29551 | 144.84727 | 36160 ft | 403 kts | 228° |
| 2026-05-06 02:39 | 40.25410 | 144.79767 | 36155 ft | 403 kts | 228° |
| 2026-05-06 02:40 | 40.21265 | 144.74811 | 36151 ft | 403 kts | 227° |
| 2026-05-06 02:40 | 40.17147 | 144.69893 | 36145 ft | 400 kts | 227° |
| 2026-05-06 02:41 | 40.13047 | 144.65007 | 36158 ft | 400 kts | 229° |
| 2026-05-06 02:41 | 40.08939 | 144.60121 | 36170 ft | 400 kts | 228° |
| 2026-05-06 02:42 | 40.04854 | 144.55269 | 36181 ft | 398 kts | 228° |
| 2026-05-06 02:42 | 40.00759 | 144.50413 | 36173 ft | 396 kts | 228° |
| 2026-05-06 02:43 | 39.96706 | 144.45616 | 36178 ft | 397 kts | 228° |
| 2026-05-06 02:43 | 39.92629 | 144.40801 | 36169 ft | 395 kts | 229° |
| 2026-05-06 02:44 | 39.88566 | 144.36006 | 36173 ft | 393 kts | 229° |
| 2026-05-06 02:44 | 39.84522 | 144.31244 | 36196 ft | 393 kts | 229° |
| 2026-05-06 02:45 | 39.80479 | 144.26489 | 36190 ft | 392 kts | 228° |
| 2026-05-06 02:45 | 39.76447 | 144.21756 | 36189 ft | 394 kts | 228° |
| 2026-05-06 02:46 | 39.72381 | 144.16994 | 36193 ft | 390 kts | 229° |
| 2026-05-06 02:46 | 39.68399 | 144.12334 | 36191 ft | 388 kts | 228° |
| 2026-05-06 02:47 | 39.64395 | 144.07655 | 36182 ft | 389 kts | 229° |
| 2026-05-06 02:47 | 39.60389 | 144.02985 | 36191 ft | 387 kts | 229° |
| 2026-05-06 02:48 | 39.56422 | 143.98369 | 36187 ft | 382 kts | 229° |
| 2026-05-06 02:48 | 39.52502 | 143.93811 | 36185 ft | 381 kts | 229° |
| 2026-05-06 02:49 | 39.48532 | 143.89200 | 36179 ft | 383 kts | 229° |
| 2026-05-06 02:49 | 39.44583 | 143.84625 | 36186 ft | 382 kts | 229° |
| 2026-05-06 02:50 | 39.40655 | 143.80084 | 36178 ft | 377 kts | 230° |
| 2026-05-06 02:50 | 39.36759 | 143.75580 | 36184 ft | 377 kts | 229° |
| 2026-05-06 02:51 | 39.32855 | 143.71078 | 36181 ft | 375 kts | 229° |
| 2026-05-06 02:51 | 39.29015 | 143.66660 | 36171 ft | 372 kts | 230° |
| 2026-05-06 02:52 | 39.25151 | 143.62216 | 36173 ft | 371 kts | 230° |
| 2026-05-06 02:52 | 39.21314 | 143.57811 | 36169 ft | 369 kts | 230° |
| 2026-05-06 02:53 | 39.17506 | 143.53442 | 36168 ft | 368 kts | 230° |
| 2026-05-06 02:53 | 39.13701 | 143.49091 | 36173 ft | 366 kts | 231° |
| 2026-05-06 02:54 | 39.09890 | 143.44733 | 36166 ft | 365 kts | 230° |
| 2026-05-06 02:54 | 39.06101 | 143.40410 | 36167 ft | 364 kts | 230° |
| 2026-05-06 02:55 | 39.02334 | 143.36122 | 36174 ft | 361 kts | 230° |
| 2026-05-06 02:55 | 38.98577 | 143.31848 | 36201 ft | 362 kts | 230° |
| 2026-05-06 02:56 | 38.94834 | 143.27589 | 36189 ft | 360 kts | 230° |
| 2026-05-06 02:56 | 38.90931 | 143.23555 | 36187 ft | 370 kts | 220° |
| 2026-05-06 02:56 | 38.88572 | 143.22147 | 36197 ft | 387 kts | 212° |
| 2026-05-06 02:57 | 38.85970 | 143.21092 | 36194 ft | 393 kts | 210° |
| 2026-05-06 02:57 | 38.80747 | 143.19041 | 36189 ft | 393 kts | 210° |
| 2026-05-06 02:58 | 38.75500 | 143.17004 | 36187 ft | 392 kts | 210° |
| 2026-05-06 02:58 | 38.70315 | 143.15008 | 36186 ft | 393 kts | 209° |
| 2026-05-06 02:59 | 38.65064 | 143.12994 | 36175 ft | 393 kts | 211° |
| 2026-05-06 02:59 | 38.59875 | 143.11011 | 36174 ft | 390 kts | 211° |
| 2026-05-06 03:00 | 38.54681 | 143.09024 | 36183 ft | 390 kts | 210° |
| 2026-05-06 03:00 | 38.49487 | 143.07045 | 36187 ft | 390 kts | 211° |
| 2026-05-06 03:01 | 38.44295 | 143.05070 | 36166 ft | 390 kts | 211° |
| 2026-05-06 03:01 | 38.39090 | 143.03091 | 36173 ft | 392 kts | 211° |
| 2026-05-06 03:02 | 38.33859 | 143.01103 | 36185 ft | 391 kts | 210° |
| 2026-05-06 03:02 | 38.28702 | 142.99158 | 36177 ft | 386 kts | 211° |
| 2026-05-06 03:03 | 38.23523 | 142.97192 | 36187 ft | 390 kts | 211° |
| 2026-05-06 03:03 | 38.18338 | 142.95235 | 36192 ft | 390 kts | 211° |
| 2026-05-06 03:04 | 38.13155 | 142.93282 | 36209 ft | 384 kts | 211° |
| 2026-05-06 03:04 | 38.08072 | 142.91368 | 36202 ft | 384 kts | 211° |
| 2026-05-06 03:05 | 38.02924 | 142.89427 | 36207 ft | 385 kts | 211° |
| 2026-05-06 03:05 | 37.97814 | 142.87512 | 36206 ft | 384 kts | 211° |
| 2026-05-06 03:06 | 37.92723 | 142.85599 | 36200 ft | 386 kts | 211° |
| 2026-05-06 03:06 | 37.87540 | 142.83656 | 36217 ft | 387 kts | 211° |
| 2026-05-06 03:07 | 37.82406 | 142.81738 | 36207 ft | 386 kts | 210° |
| 2026-05-06 03:07 | 37.77252 | 142.79814 | 36214 ft | 389 kts | 210° |
| 2026-05-06 03:08 | 37.72043 | 142.77872 | 36203 ft | 390 kts | 210° |
| 2026-05-06 03:08 | 37.66825 | 142.75928 | 36203 ft | 393 kts | 210° |
| 2026-05-06 03:09 | 37.61556 | 142.73970 | 36201 ft | 394 kts | 210° |
| 2026-05-06 03:09 | 37.56328 | 142.72032 | 36198 ft | 391 kts | 210° |
| 2026-05-06 03:10 | 37.51095 | 142.70105 | 36202 ft | 391 kts | 210° |
| 2026-05-06 03:10 | 37.45851 | 142.68176 | 36215 ft | 393 kts | 210° |
| 2026-05-06 03:11 | 37.40596 | 142.66251 | 36213 ft | 396 kts | 211° |
| 2026-05-06 03:11 | 37.35318 | 142.64317 | 36206 ft | 393 kts | 209° |
| 2026-05-06 03:12 | 37.30095 | 142.62410 | 36201 ft | 393 kts | 210° |
| 2026-05-06 03:12 | 37.24847 | 142.60492 | 36173 ft | 394 kts | 209° |
| 2026-05-06 03:13 | 37.19595 | 142.58578 | 36189 ft | 393 kts | 210° |
| 2026-05-06 03:13 | 37.14320 | 142.56657 | 36192 ft | 396 kts | 210° |
| 2026-05-06 03:14 | 37.09031 | 142.54735 | 36189 ft | 396 kts | 210° |
| 2026-05-06 03:14 | 37.03751 | 142.52820 | 36189 ft | 398 kts | 209° |
| 2026-05-06 03:15 | 36.98401 | 142.50879 | 36209 ft | 401 kts | 209° |
| 2026-05-06 03:15 | 36.93050 | 142.48943 | 36197 ft | 401 kts | 209° |
| 2026-05-06 03:16 | 36.87669 | 142.47008 | 36197 ft | 400 kts | 208° |
| 2026-05-06 03:16 | 36.82317 | 142.45088 | 36211 ft | 403 kts | 209° |
| 2026-05-06 03:17 | 36.76932 | 142.43162 | 36190 ft | 402 kts | 208° |
| 2026-05-06 03:17 | 36.71545 | 142.41235 | 36216 ft | 404 kts | 208° |
| 2026-05-06 03:18 | 36.66163 | 142.39314 | 36208 ft | 406 kts | 208° |
| 2026-05-06 03:18 | 36.60723 | 142.37376 | 36203 ft | 406 kts | 208° |
| 2026-05-06 03:19 | 36.55273 | 142.35439 | 36198 ft | 407 kts | 209° |
| 2026-05-06 03:19 | 36.49833 | 142.33505 | 36213 ft | 407 kts | 208° |
| 2026-05-06 03:20 | 36.41640 | 142.30598 | 36225 ft | 408 kts | 207° |
| 2026-05-06 03:20 | 36.36197 | 142.28673 | 36226 ft | 408 kts | 208° |
| 2026-05-06 03:21 | 36.30711 | 142.26724 | 36222 ft | 410 kts | 208° |
| 2026-05-06 03:21 | 36.28119 | 142.25513 | 36214 ft | 397 kts | 217° |
| 2026-05-06 03:21 | 36.25711 | 142.23869 | 36234 ft | 393 kts | 220° |
| 2026-05-06 03:22 | 36.20925 | 142.20541 | 36216 ft | 395 kts | 219° |
| 2026-05-06 03:22 | 36.16135 | 142.17236 | 36223 ft | 396 kts | 219° |
| 2026-05-06 03:23 | 36.11334 | 142.13934 | 36217 ft | 395 kts | 219° |
| 2026-05-06 03:23 | 36.09078 | 142.12048 | 36221 ft | 384 kts | 229° |
| 2026-05-06 03:23 | 36.07247 | 142.09778 | 36219 ft | 373 kts | 238° |
| 2026-05-06 03:24 | 36.04710 | 142.04295 | 36221 ft | 369 kts | 248° |
| 2026-05-06 03:24 | 36.02523 | 141.98589 | 36207 ft | 367 kts | 248° |
| 2026-05-06 03:25 | 36.00394 | 141.92857 | 36211 ft | 368 kts | 249° |
| 2026-05-06 03:25 | 35.98291 | 141.87125 | 36203 ft | 369 kts | 249° |
| 2026-05-06 03:26 | 35.96191 | 141.81364 | 36205 ft | 367 kts | 249° |
| 2026-05-06 03:26 | 35.94630 | 141.75478 | 36214 ft | 364 kts | 262° |
| 2026-05-06 03:27 | 35.94521 | 141.69238 | 36198 ft | 366 kts | 267° |
| 2026-05-06 03:27 | 35.94518 | 141.62956 | 36195 ft | 366 kts | 268° |
| 2026-05-06 03:28 | 35.94535 | 141.56728 | 36190 ft | 366 kts | 267° |
| 2026-05-06 03:28 | 35.94554 | 141.50462 | 36183 ft | 367 kts | 268° |
| 2026-05-06 03:29 | 35.94577 | 141.44319 | 36095 ft | 344 kts | 267° |
| 2026-05-06 03:29 | 35.94587 | 141.41435 | 35641 ft | 339 kts | 268° |
| 2026-05-06 03:29 | 35.94596 | 141.38522 | 34740 ft | 343 kts | 266° |
| 2026-05-06 03:30 | 35.94602 | 141.35570 | 33778 ft | 348 kts | 266° |
| 2026-05-06 03:30 | 35.94610 | 141.32600 | 33092 ft | 348 kts | 266° |
| 2026-05-06 03:30 | 35.94618 | 141.29619 | 32511 ft | 350 kts | 266° |
| 2026-05-06 03:30 | 35.94625 | 141.26619 | 31983 ft | 354 kts | 266° |
| 2026-05-06 03:31 | 35.94629 | 141.23578 | 31443 ft | 362 kts | 265° |
| 2026-05-06 03:31 | 35.94634 | 141.20465 | 30929 ft | 368 kts | 265° |
| 2026-05-06 03:31 | 35.94637 | 141.17294 | 30297 ft | 374 kts | 266° |
| 2026-05-06 03:31 | 35.94643 | 141.14088 | 29675 ft | 375 kts | 265° |
| 2026-05-06 03:32 | 35.94647 | 141.10879 | 29109 ft | 375 kts | 265° |
| 2026-05-06 03:32 | 35.94648 | 141.07712 | 28558 ft | 370 kts | 266° |
| 2026-05-06 03:32 | 35.94655 | 141.04576 | 28014 ft | 366 kts | 265° |
| 2026-05-06 03:32 | 35.94655 | 141.01459 | 27394 ft | 364 kts | 266° |
| 2026-05-06 03:33 | 35.94759 | 140.98347 | 26815 ft | 367 kts | 271° |
| 2026-05-06 03:33 | 35.95349 | 140.95287 | 26252 ft | 372 kts | 282° |
| 2026-05-06 03:33 | 35.96444 | 140.92371 | 25654 ft | 385 kts | 291° |
| 2026-05-06 03:33 | 35.97892 | 140.89545 | 25040 ft | 385 kts | 293° |
| 2026-05-06 03:34 | 35.99305 | 140.86765 | 24446 ft | 383 kts | 293° |
| 2026-05-06 03:34 | 36.00720 | 140.83997 | 23840 ft | 382 kts | 293° |
| 2026-05-06 03:34 | 36.02121 | 140.81250 | 23247 ft | 380 kts | 294° |
| 2026-05-06 03:34 | 36.03523 | 140.78499 | 22687 ft | 378 kts | 294° |
| 2026-05-06 03:35 | 36.04904 | 140.75789 | 22141 ft | 376 kts | 294° |
| 2026-05-06 03:35 | 36.06293 | 140.73064 | 21596 ft | 374 kts | 294° |
| 2026-05-06 03:35 | 36.07669 | 140.70354 | 21000 ft | 373 kts | 295° |
| 2026-05-06 03:35 | 36.09040 | 140.67656 | 20310 ft | 375 kts | 295° |
| 2026-05-06 03:36 | 36.10433 | 140.64914 | 19725 ft | 374 kts | 295° |
| 2026-05-06 03:36 | 36.11794 | 140.62230 | 19096 ft | 373 kts | 296° |
| 2026-05-06 03:36 | 36.13159 | 140.59537 | 18517 ft | 373 kts | 297° |
| 2026-05-06 03:36 | 36.14546 | 140.56799 | 17902 ft | 372 kts | 297° |
| 2026-05-06 03:37 | 36.15907 | 140.54111 | 17283 ft | 373 kts | 298° |
| 2026-05-06 03:37 | 36.17280 | 140.51396 | 16575 ft | 375 kts | 298° |
| 2026-05-06 03:37 | 36.18669 | 140.48648 | 15913 ft | 376 kts | 298° |
| 2026-05-06 03:37 | 36.20061 | 140.45926 | 15254 ft | 378 kts | 302° |
| 2026-05-06 03:38 | 36.21767 | 140.43567 | 15178 ft | 368 kts | 318° |
| 2026-05-06 03:38 | 36.23883 | 140.41763 | 15190 ft | 366 kts | 324° |
| 2026-05-06 03:38 | 36.25990 | 140.40045 | 15192 ft | 365 kts | 324° |
| 2026-05-06 03:38 | 36.28127 | 140.38329 | 15186 ft | 366 kts | 324° |
| 2026-05-06 03:39 | 36.30264 | 140.36604 | 15181 ft | 367 kts | 324° |
| 2026-05-06 03:39 | 36.32437 | 140.34863 | 15186 ft | 368 kts | 324° |
| 2026-05-06 03:39 | 36.34580 | 140.33144 | 15188 ft | 367 kts | 324° |
| 2026-05-06 03:39 | 36.36588 | 140.31282 | 15181 ft | 362 kts | 313° |
| 2026-05-06 03:40 | 36.38110 | 140.28839 | 15219 ft | 359 kts | 296° |
| 2026-05-06 03:40 | 36.39022 | 140.25937 | 15115 ft | 362 kts | 280° |
| 2026-05-06 03:40 | 36.39234 | 140.22847 | 14949 ft | 362 kts | 264° |
| 2026-05-06 03:40 | 36.38843 | 140.19835 | 14812 ft | 354 kts | 256° |
| 2026-05-06 03:41 | 36.38354 | 140.16867 | 14633 ft | 356 kts | 257° |
| 2026-05-06 03:41 | 36.37817 | 140.13867 | 14473 ft | 357 kts | 256° |
| 2026-05-06 03:41 | 36.37259 | 140.10840 | 14311 ft | 353 kts | 255° |
| 2026-05-06 03:41 | 36.36693 | 140.07893 | 14145 ft | 353 kts | 255° |
| 2026-05-06 03:42 | 36.35821 | 140.05077 | 13990 ft | 352 kts | 239° |
| 2026-05-06 03:42 | 36.34319 | 140.02684 | 13865 ft | 351 kts | 224° |
| 2026-05-06 03:42 | 36.32352 | 140.00890 | 13298 ft | 356 kts | 207° |
| 2026-05-06 03:42 | 36.30027 | 139.99843 | 12690 ft | 357 kts | 191° |
| 2026-05-06 03:43 | 36.27576 | 139.99582 | 12096 ft | 357 kts | 181° |
| 2026-05-06 03:43 | 36.25111 | 139.99463 | 11552 ft | 355 kts | 184° |
| 2026-05-06 03:43 | 36.22692 | 139.99303 | 11475 ft | 340 kts | 182° |
| 2026-05-06 03:43 | 36.20345 | 139.99150 | 10969 ft | 340 kts | 183° |
| 2026-05-06 03:44 | 36.17997 | 139.98997 | 10780 ft | 328 kts | 183° |
| 2026-05-06 03:44 | 36.15787 | 139.98851 | 10767 ft | 313 kts | 183° |
| 2026-05-06 03:44 | 36.13647 | 139.98711 | 10745 ft | 299 kts | 183° |
| 2026-05-06 03:44 | 36.11618 | 139.98576 | 10708 ft | 286 kts | 183° |
| 2026-05-06 03:45 | 36.09665 | 139.98448 | 10474 ft | 282 kts | 183° |
| 2026-05-06 03:45 | 36.07737 | 139.98325 | 10313 ft | 274 kts | 181° |
| 2026-05-06 03:45 | 36.05857 | 139.98703 | 10189 ft | 271 kts | 161° |
| 2026-05-06 03:45 | 36.04113 | 139.99468 | 10167 ft | 268 kts | 161° |
| 2026-05-06 03:46 | 36.02348 | 140.00227 | 10161 ft | 268 kts | 161° |
| 2026-05-06 03:46 | 36.00590 | 140.01004 | 10148 ft | 269 kts | 161° |
| 2026-05-06 03:46 | 35.98809 | 140.01798 | 10154 ft | 271 kts | 161° |
| 2026-05-06 03:46 | 35.97021 | 140.02597 | 10157 ft | 273 kts | 161° |
| 2026-05-06 03:47 | 35.95250 | 140.03394 | 10157 ft | 273 kts | 161° |
| 2026-05-06 03:47 | 35.93476 | 140.04192 | 10147 ft | 272 kts | 161° |
| 2026-05-06 03:47 | 35.91685 | 140.04997 | 10157 ft | 272 kts | 161° |
| 2026-05-06 03:47 | 35.89912 | 140.05795 | 10171 ft | 272 kts | 161° |
| 2026-05-06 03:48 | 35.88144 | 140.06590 | 10158 ft | 271 kts | 160° |
| 2026-05-06 03:48 | 35.86364 | 140.07391 | 10160 ft | 270 kts | 160° |
| 2026-05-06 03:48 | 35.84613 | 140.08179 | 10164 ft | 270 kts | 160° |
| 2026-05-06 03:48 | 35.82824 | 140.08983 | 10178 ft | 271 kts | 160° |
| 2026-05-06 03:49 | 35.81068 | 140.09772 | 10167 ft | 272 kts | 160° |
| 2026-05-06 03:49 | 35.79281 | 140.10576 | 10157 ft | 272 kts | 161° |
| 2026-05-06 03:49 | 35.77501 | 140.11377 | 10185 ft | 273 kts | 161° |
| 2026-05-06 03:49 | 35.75722 | 140.12175 | 10174 ft | 274 kts | 161° |
| 2026-05-06 03:50 | 35.73918 | 140.12973 | 10161 ft | 273 kts | 165° |
| 2026-05-06 03:50 | 35.72069 | 140.13153 | 10180 ft | 267 kts | 192° |
| 2026-05-06 03:50 | 35.70355 | 140.12230 | 10217 ft | 270 kts | 216° |
| 2026-05-06 03:50 | 35.68871 | 140.10790 | 10193 ft | 275 kts | 218° |
| 2026-05-06 03:51 | 35.67399 | 140.09317 | 10181 ft | 274 kts | 219° |
| 2026-05-06 03:51 | 35.65934 | 140.07809 | 10173 ft | 271 kts | 219° |
| 2026-05-06 03:51 | 35.64495 | 140.06305 | 10173 ft | 269 kts | 220° |
| 2026-05-06 03:51 | 35.63087 | 140.04819 | 10179 ft | 269 kts | 220° |
| 2026-05-06 03:52 | 35.61672 | 140.03317 | 10176 ft | 271 kts | 220° |
| 2026-05-06 03:52 | 35.60234 | 140.01788 | 10177 ft | 272 kts | 220° |
| 2026-05-06 03:52 | 35.58813 | 140.00275 | 10178 ft | 272 kts | 220° |
| 2026-05-06 03:52 | 35.57581 | 139.98532 | 10179 ft | 274 kts | 242° |
| 2026-05-06 03:53 | 35.57085 | 139.96263 | 10218 ft | 277 kts | 264° |
| 2026-05-06 03:53 | 35.56940 | 139.93883 | 10186 ft | 280 kts | 264° |
| 2026-05-06 03:53 | 35.56787 | 139.91510 | 10180 ft | 279 kts | 264° |
| 2026-05-06 03:53 | 35.56648 | 139.89146 | 10180 ft | 276 kts | 264° |
| 2026-05-06 03:54 | 35.56527 | 139.86832 | 10178 ft | 275 kts | 265° |
| 2026-05-06 03:54 | 35.56405 | 139.84492 | 10183 ft | 276 kts | 265° |
| 2026-05-06 03:54 | 35.56276 | 139.82118 | 10185 ft | 277 kts | 262° |
| 2026-05-06 03:54 | 35.55731 | 139.79904 | 10192 ft | 272 kts | 236° |
| 2026-05-06 03:55 | 35.54439 | 139.78224 | 10216 ft | 272 kts | 219° |
| 2026-05-06 03:55 | 35.52887 | 139.76892 | 10183 ft | 274 kts | 202° |
| 2026-05-06 03:55 | 35.51037 | 139.76504 | 10214 ft | 272 kts | 175° |
| 2026-05-06 03:55 | 35.49237 | 139.77130 | 10209 ft | 273 kts | 160° |
| 2026-05-06 03:56 | 35.47407 | 139.77879 | 10184 ft | 275 kts | 166° |
| 2026-05-06 03:56 | 35.45568 | 139.78462 | 10184 ft | 275 kts | 168° |
| 2026-05-06 03:56 | 35.43701 | 139.78979 | 10183 ft | 274 kts | 169° |
| 2026-05-06 03:56 | 35.41833 | 139.79450 | 10181 ft | 273 kts | 170° |
| 2026-05-06 03:57 | 35.39964 | 139.79890 | 10187 ft | 274 kts | 171° |
| 2026-05-06 03:57 | 35.38087 | 139.80318 | 10189 ft | 275 kts | 171° |
| 2026-05-06 03:57 | 35.36203 | 139.80737 | 10184 ft | 275 kts | 171° |
| 2026-05-06 03:57 | 35.34329 | 139.81149 | 10179 ft | 274 kts | 171° |
| 2026-05-06 03:58 | 35.32433 | 139.81561 | 10183 ft | 274 kts | 172° |
| 2026-05-06 03:58 | 35.30568 | 139.81964 | 10209 ft | 275 kts | 172° |
| 2026-05-06 03:58 | 35.28678 | 139.82370 | 10193 ft | 276 kts | 171° |
| 2026-05-06 03:58 | 35.26777 | 139.82777 | 10180 ft | 275 kts | 172° |
| 2026-05-06 03:59 | 35.24895 | 139.83180 | 10182 ft | 273 kts | 172° |
| 2026-05-06 03:59 | 35.23030 | 139.83578 | 10185 ft | 272 kts | 172° |
| 2026-05-06 03:59 | 35.21142 | 139.83981 | 10180 ft | 273 kts | 172° |
| 2026-05-06 03:59 | 35.19272 | 139.84378 | 10188 ft | 275 kts | 172° |
| 2026-05-06 04:00 | 35.17380 | 139.84779 | 10190 ft | 276 kts | 172° |
| 2026-05-06 04:00 | 35.15503 | 139.85178 | 10177 ft | 275 kts | 172° |
| 2026-05-06 04:00 | 35.13596 | 139.85580 | 10180 ft | 275 kts | 172° |
| 2026-05-06 04:00 | 35.11722 | 139.85977 | 10187 ft | 275 kts | 172° |
| 2026-05-06 04:01 | 35.09820 | 139.86377 | 10184 ft | 276 kts | 172° |
| 2026-05-06 04:01 | 35.07922 | 139.86775 | 10187 ft | 277 kts | 171° |
| 2026-05-06 04:01 | 35.06033 | 139.87172 | 10192 ft | 278 kts | 172° |
| 2026-05-06 04:01 | 35.04106 | 139.87576 | 10182 ft | 278 kts | 172° |
| 2026-05-06 04:02 | 35.02228 | 139.87968 | 10184 ft | 277 kts | 172° |
| 2026-05-06 04:02 | 35.00326 | 139.88367 | 10186 ft | 276 kts | 172° |
| 2026-05-06 04:02 | 34.98415 | 139.88763 | 10193 ft | 277 kts | 172° |
| 2026-05-06 04:02 | 34.96516 | 139.89159 | 10195 ft | 277 kts | 172° |
| 2026-05-06 04:03 | 34.94623 | 139.89533 | 10193 ft | 276 kts | 177° |
| 2026-05-06 04:03 | 34.92757 | 139.89244 | 10211 ft | 269 kts | 204° |
| 2026-05-06 04:03 | 34.91227 | 139.87994 | 10222 ft | 267 kts | 222° |
| 2026-05-06 04:03 | 34.89757 | 139.86551 | 10194 ft | 270 kts | 217° |
| 2026-05-06 04:04 | 34.88215 | 139.85234 | 10198 ft | 271 kts | 215° |
| 2026-05-06 04:04 | 34.86650 | 139.83981 | 10193 ft | 269 kts | 213° |
| 2026-05-06 04:04 | 34.85064 | 139.82767 | 10190 ft | 268 kts | 211° |
| 2026-05-06 04:04 | 34.83305 | 139.82024 | 10205 ft | 270 kts | 187° |
| 2026-05-06 04:05 | 34.81449 | 139.82280 | 10218 ft | 277 kts | 161° |
| 2026-05-06 04:05 | 34.79799 | 139.83580 | 10226 ft | 288 kts | 134° |
| 2026-05-06 04:05 | 34.78812 | 139.85693 | 10224 ft | 294 kts | 105° |
| 2026-05-06 04:05 | 34.78759 | 139.88136 | 10225 ft | 296 kts | 76° |
| 2026-05-06 04:06 | 34.79700 | 139.90359 | 10231 ft | 297 kts | 46° |
| 2026-05-06 04:06 | 34.81393 | 139.91740 | 10233 ft | 294 kts | 16° |
| 2026-05-06 04:06 | 34.83375 | 139.91971 | 10233 ft | 289 kts | 348° |
| 2026-05-06 04:06 | 34.85358 | 139.91487 | 10208 ft | 289 kts | 346° |
| 2026-05-06 04:07 | 34.87336 | 139.91043 | 10195 ft | 289 kts | 348° |
| 2026-05-06 04:07 | 34.89310 | 139.90625 | 10192 ft | 287 kts | 348° |
| 2026-05-06 04:07 | 34.91285 | 139.90216 | 10193 ft | 285 kts | 348° |
| 2026-05-06 04:07 | 34.93243 | 139.89818 | 10193 ft | 285 kts | 348° |
| 2026-05-06 04:08 | 34.95184 | 139.89327 | 10183 ft | 283 kts | 336° |
| 2026-05-06 04:08 | 34.96793 | 139.88031 | 10221 ft | 277 kts | 309° |
| 2026-05-06 04:08 | 34.97733 | 139.86005 | 10223 ft | 276 kts | 282° |
| 2026-05-06 04:08 | 34.97818 | 139.83723 | 10227 ft | 274 kts | 257° |
| 2026-05-06 04:09 | 34.97054 | 139.81630 | 10209 ft | 272 kts | 231° |
| 2026-05-06 04:09 | 34.95602 | 139.80176 | 10216 ft | 272 kts | 206° |
| 2026-05-06 04:09 | 34.93763 | 139.79657 | 10226 ft | 276 kts | 180° |
| 2026-05-06 04:09 | 34.91834 | 139.79954 | 10220 ft | 278 kts | 173° |
| 2026-05-06 04:10 | 34.89943 | 139.80319 | 10190 ft | 277 kts | 173° |
| 2026-05-06 04:10 | 34.88049 | 139.80684 | 10187 ft | 274 kts | 173° |
| 2026-05-06 04:10 | 34.86166 | 139.81052 | 10196 ft | 273 kts | 173° |
| 2026-05-06 04:10 | 34.84270 | 139.81433 | 10197 ft | 274 kts | 170° |
| 2026-05-06 04:11 | 34.82534 | 139.82340 | 10202 ft | 279 kts | 144° |
| 2026-05-06 04:11 | 34.81279 | 139.84135 | 10226 ft | 286 kts | 118° |
| 2026-05-06 04:11 | 34.80825 | 139.86528 | 10226 ft | 294 kts | 88° |
| 2026-05-06 04:11 | 34.81353 | 139.88890 | 10225 ft | 297 kts | 59° |
| 2026-05-06 04:12 | 34.82772 | 139.90688 | 10235 ft | 296 kts | 28° |
| 2026-05-06 04:12 | 34.84719 | 139.91429 | 10228 ft | 290 kts | 359° |
| 2026-05-06 04:12 | 34.86698 | 139.91147 | 10226 ft | 286 kts | 347° |
| 2026-05-06 04:12 | 34.88646 | 139.90733 | 10196 ft | 287 kts | 348° |
| 2026-05-06 04:13 | 34.90602 | 139.90343 | 10194 ft | 285 kts | 348° |
| 2026-05-06 04:13 | 34.92581 | 139.89944 | 10192 ft | 284 kts | 349° |
| 2026-05-06 04:13 | 34.94518 | 139.89545 | 10187 ft | 283 kts | 345° |
| 2026-05-06 04:13 | 34.96289 | 139.88582 | 10209 ft | 278 kts | 318° |
| 2026-05-06 04:14 | 34.97485 | 139.86757 | 10224 ft | 277 kts | 291° |
| 2026-05-06 04:14 | 34.97859 | 139.84494 | 10227 ft | 275 kts | 265° |
| 2026-05-06 04:14 | 34.97352 | 139.82289 | 10214 ft | 273 kts | 239° |
| 2026-05-06 04:14 | 34.96084 | 139.80605 | 10216 ft | 271 kts | 213° |
| 2026-05-06 04:15 | 34.94323 | 139.79790 | 10224 ft | 273 kts | 187° |
| 2026-05-06 04:15 | 34.92433 | 139.79929 | 10228 ft | 276 kts | 173° |
| 2026-05-06 04:15 | 34.90520 | 139.80309 | 10197 ft | 278 kts | 174° |
| 2026-05-06 04:15 | 34.88605 | 139.80675 | 10187 ft | 277 kts | 173° |
| 2026-05-06 04:16 | 34.86714 | 139.81044 | 10196 ft | 276 kts | 173° |
| 2026-05-06 04:16 | 34.84817 | 139.81418 | 10196 ft | 276 kts | 173° |
| 2026-05-06 04:16 | 34.82980 | 139.82092 | 10190 ft | 280 kts | 152° |
| 2026-05-06 04:16 | 34.81539 | 139.83714 | 10224 ft | 285 kts | 124° |
| 2026-05-06 04:17 | 34.80875 | 139.85973 | 10228 ft | 294 kts | 95° |
| 2026-05-06 04:17 | 34.81181 | 139.88431 | 10233 ft | 298 kts | 65° |
| 2026-05-06 04:17 | 34.82433 | 139.90404 | 10226 ft | 297 kts | 35° |
| 2026-05-06 04:17 | 34.84295 | 139.91376 | 10226 ft | 291 kts | 4° |
| 2026-05-06 04:18 | 34.86299 | 139.91234 | 10233 ft | 288 kts | 347° |
| 2026-05-06 04:18 | 34.88271 | 139.90807 | 10195 ft | 290 kts | 348° |
| 2026-05-06 04:18 | 34.90260 | 139.90410 | 10185 ft | 289 kts | 348° |
| 2026-05-06 04:18 | 34.92249 | 139.90010 | 10185 ft | 287 kts | 349° |
| 2026-05-06 04:19 | 34.94208 | 139.89616 | 10178 ft | 285 kts | 348° |
| 2026-05-06 04:19 | 34.96047 | 139.88789 | 10183 ft | 279 kts | 322° |
| 2026-05-06 04:19 | 34.97343 | 139.87096 | 10206 ft | 275 kts | 296° |
| 2026-05-06 04:19 | 34.97872 | 139.84877 | 10211 ft | 275 kts | 270° |
| 2026-05-06 04:20 | 34.97533 | 139.82634 | 10190 ft | 273 kts | 244° |
| 2026-05-06 04:20 | 34.96412 | 139.80818 | 10193 ft | 271 kts | 219° |
| 2026-05-06 04:20 | 34.94739 | 139.79788 | 10200 ft | 273 kts | 194° |
| 2026-05-06 04:20 | 34.92816 | 139.79739 | 10207 ft | 277 kts | 173° |
| 2026-05-06 04:21 | 34.90906 | 139.80121 | 10181 ft | 278 kts | 173° |
| 2026-05-06 04:21 | 34.89012 | 139.80482 | 10170 ft | 276 kts | 173° |
| 2026-05-06 04:21 | 34.87115 | 139.80852 | 10171 ft | 273 kts | 173° |
| 2026-05-06 04:21 | 34.85248 | 139.81220 | 10178 ft | 273 kts | 173° |
| 2026-05-06 04:22 | 34.83398 | 139.81737 | 10166 ft | 275 kts | 158° |
| 2026-05-06 04:22 | 34.81844 | 139.83101 | 10204 ft | 280 kts | 131° |
| 2026-05-06 04:22 | 34.80940 | 139.85225 | 10204 ft | 289 kts | 104° |
| 2026-05-06 04:23 | 34.81920 | 139.89845 | 10213 ft | 299 kts | 45° |
| 2026-05-06 04:23 | 34.83646 | 139.91197 | 10212 ft | 296 kts | 15° |
| 2026-05-06 04:23 | 34.85659 | 139.91382 | 10213 ft | 290 kts | 348° |
| 2026-05-06 04:23 | 34.87664 | 139.90944 | 10182 ft | 292 kts | 348° |
| 2026-05-06 04:24 | 34.89682 | 139.90530 | 10173 ft | 293 kts | 349° |
| 2026-05-06 04:24 | 34.91668 | 139.90129 | 10174 ft | 291 kts | 349° |
| 2026-05-06 04:24 | 34.93693 | 139.89723 | 10170 ft | 290 kts | 349° |
| 2026-05-06 04:24 | 34.95612 | 139.89108 | 10163 ft | 285 kts | 329° |
| 2026-05-06 04:25 | 34.97104 | 139.87584 | 10207 ft | 279 kts | 301° |
| 2026-05-06 04:25 | 34.97836 | 139.85440 | 10212 ft | 275 kts | 275° |
| 2026-05-06 04:25 | 34.97695 | 139.83168 | 10199 ft | 271 kts | 249° |
| 2026-05-06 04:25 | 34.96726 | 139.81210 | 10193 ft | 269 kts | 224° |
| 2026-05-06 04:26 | 34.95179 | 139.80003 | 10201 ft | 270 kts | 199° |
| 2026-05-06 04:26 | 34.93301 | 139.79736 | 10203 ft | 274 kts | 176° |
| 2026-05-06 04:26 | 34.91407 | 139.80087 | 10189 ft | 275 kts | 173° |
| 2026-05-06 04:26 | 34.89520 | 139.80444 | 10170 ft | 272 kts | 173° |
| 2026-05-06 04:27 | 34.87662 | 139.80803 | 10171 ft | 270 kts | 173° |
| 2026-05-06 04:27 | 34.85823 | 139.81161 | 10177 ft | 270 kts | 173° |
| 2026-05-06 04:27 | 34.83973 | 139.81560 | 10171 ft | 271 kts | 166° |
| 2026-05-06 04:27 | 34.82297 | 139.82622 | 10193 ft | 277 kts | 141° |
| 2026-05-06 04:28 | 34.81156 | 139.84534 | 10201 ft | 286 kts | 113° |
| 2026-05-06 04:28 | 34.80862 | 139.86955 | 10206 ft | 295 kts | 84° |
| 2026-05-06 04:28 | 34.81554 | 139.89279 | 10206 ft | 299 kts | 54° |
| 2026-05-06 04:28 | 34.83114 | 139.90936 | 10215 ft | 300 kts | 24° |
| 2026-05-06 04:29 | 34.85106 | 139.91458 | 10214 ft | 295 kts | 354° |
| 2026-05-06 04:29 | 34.87144 | 139.91071 | 10198 ft | 293 kts | 347° |
| 2026-05-06 04:29 | 34.89144 | 139.90646 | 10168 ft | 292 kts | 348° |
| 2026-05-06 04:29 | 34.91137 | 139.90240 | 10173 ft | 289 kts | 348° |
| 2026-05-06 04:30 | 34.93120 | 139.89839 | 10175 ft | 288 kts | 348° |
| 2026-05-06 04:30 | 34.95057 | 139.89378 | 10162 ft | 285 kts | 338° |
| 2026-05-06 04:30 | 34.96715 | 139.88136 | 10196 ft | 279 kts | 310° |
| 2026-05-06 04:30 | 34.97706 | 139.86118 | 10212 ft | 278 kts | 283° |
| 2026-05-06 04:31 | 34.97831 | 139.83827 | 10205 ft | 274 kts | 257° |
| 2026-05-06 04:31 | 34.97091 | 139.81712 | 10186 ft | 270 kts | 230° |
| 2026-05-06 04:31 | 34.95685 | 139.80258 | 10196 ft | 268 kts | 206° |
| 2026-05-06 04:31 | 34.93876 | 139.79697 | 10200 ft | 270 kts | 181° |
| 2026-05-06 04:32 | 34.92018 | 139.79959 | 10197 ft | 272 kts | 173° |
| 2026-05-06 04:32 | 34.90127 | 139.80319 | 10173 ft | 272 kts | 174° |
| 2026-05-06 04:32 | 34.88285 | 139.80669 | 10175 ft | 271 kts | 173° |
| 2026-05-06 04:32 | 34.86422 | 139.81032 | 10176 ft | 271 kts | 173° |
| 2026-05-06 04:33 | 34.84539 | 139.81403 | 10178 ft | 271 kts | 173° |
| 2026-05-06 04:33 | 34.82766 | 139.82184 | 10179 ft | 275 kts | 149° |
| 2026-05-06 04:33 | 34.81430 | 139.83864 | 10199 ft | 283 kts | 122° |
| 2026-05-06 04:33 | 34.80853 | 139.86134 | 10205 ft | 292 kts | 94° |
| 2026-05-06 04:34 | 34.81224 | 139.88554 | 10203 ft | 298 kts | 65° |
| 2026-05-06 04:34 | 34.82529 | 139.90495 | 10211 ft | 300 kts | 34° |
| 2026-05-06 04:34 | 34.84455 | 139.91423 | 10212 ft | 297 kts | 3° |
| 2026-05-06 04:34 | 34.86499 | 139.91228 | 10210 ft | 293 kts | 346° |
| 2026-05-06 04:35 | 34.88503 | 139.90781 | 10176 ft | 294 kts | 348° |
| 2026-05-06 04:35 | 34.90506 | 139.90370 | 10170 ft | 291 kts | 348° |
| 2026-05-06 04:35 | 34.92511 | 139.89963 | 10171 ft | 289 kts | 348° |
| 2026-05-06 04:35 | 34.94499 | 139.89555 | 10172 ft | 288 kts | 346° |
| 2026-05-06 04:36 | 34.96301 | 139.88588 | 10188 ft | 282 kts | 317° |
| 2026-05-06 04:36 | 34.97487 | 139.86762 | 10212 ft | 278 kts | 290° |
| 2026-05-06 04:36 | 34.97838 | 139.84491 | 10208 ft | 273 kts | 263° |
| 2026-05-06 04:36 | 34.97298 | 139.82307 | 10198 ft | 269 kts | 237° |
| 2026-05-06 04:37 | 34.96016 | 139.80681 | 10193 ft | 267 kts | 212° |
| 2026-05-06 04:37 | 34.94280 | 139.79929 | 10204 ft | 269 kts | 186° |
| 2026-05-06 04:37 | 34.92413 | 139.80093 | 10205 ft | 272 kts | 173° |
| 2026-05-06 04:37 | 34.90516 | 139.80460 | 10172 ft | 273 kts | 174° |
| 2026-05-06 04:38 | 34.88655 | 139.80811 | 10172 ft | 271 kts | 173° |
| 2026-05-06 04:38 | 34.86786 | 139.81171 | 10173 ft | 269 kts | 174° |
| 2026-05-06 04:38 | 34.84952 | 139.81531 | 10174 ft | 268 kts | 173° |
| 2026-05-06 04:38 | 34.83136 | 139.82150 | 10169 ft | 272 kts | 154° |
| 2026-05-06 04:39 | 34.81696 | 139.83664 | 10206 ft | 281 kts | 127° |
| 2026-05-06 04:39 | 34.80960 | 139.85879 | 10203 ft | 292 kts | 99° |
| 2026-05-06 04:39 | 34.81187 | 139.88332 | 10209 ft | 299 kts | 68° |
| 2026-05-06 04:39 | 34.82390 | 139.90366 | 10207 ft | 299 kts | 37° |
| 2026-05-06 04:40 | 34.84247 | 139.91399 | 10214 ft | 295 kts | 6° |
| 2026-05-06 04:40 | 34.86268 | 139.91275 | 10218 ft | 291 kts | 346° |
| 2026-05-06 04:40 | 34.88287 | 139.90820 | 10175 ft | 294 kts | 348° |
| 2026-05-06 04:40 | 34.90282 | 139.90414 | 10175 ft | 293 kts | 348° |
| 2026-05-06 04:41 | 34.92284 | 139.90007 | 10174 ft | 291 kts | 348° |
| 2026-05-06 04:41 | 34.94288 | 139.89603 | 10172 ft | 288 kts | 347° |
| 2026-05-06 04:41 | 34.96133 | 139.88739 | 10178 ft | 281 kts | 320° |
| 2026-05-06 04:41 | 34.97409 | 139.87012 | 10212 ft | 277 kts | 294° |
| 2026-05-06 04:42 | 34.97904 | 139.84758 | 10208 ft | 274 kts | 267° |
| 2026-05-06 04:42 | 34.97524 | 139.82541 | 10199 ft | 270 kts | 242° |
| 2026-05-06 04:42 | 34.96383 | 139.80766 | 10195 ft | 266 kts | 217° |
| 2026-05-06 04:42 | 34.94740 | 139.79788 | 10198 ft | 266 kts | 193° |
| 2026-05-06 04:43 | 34.92881 | 139.79747 | 10206 ft | 270 kts | 174° |
| 2026-05-06 04:43 | 34.91014 | 139.80110 | 10175 ft | 272 kts | 174° |
| 2026-05-06 04:43 | 34.89147 | 139.80458 | 10167 ft | 272 kts | 173° |
| 2026-05-06 04:43 | 34.87288 | 139.80817 | 10172 ft | 272 kts | 173° |
| 2026-05-06 04:44 | 34.85422 | 139.81181 | 10172 ft | 272 kts | 173° |
| 2026-05-06 04:44 | 34.83566 | 139.81653 | 10163 ft | 274 kts | 161° |
| 2026-05-06 04:44 | 34.81974 | 139.82921 | 10194 ft | 278 kts | 135° |
| 2026-05-06 04:44 | 34.80997 | 139.84963 | 10200 ft | 287 kts | 108° |
| 2026-05-06 04:45 | 34.80896 | 139.87396 | 10206 ft | 295 kts | 79° |
| 2026-05-06 04:45 | 34.81778 | 139.89658 | 10201 ft | 300 kts | 49° |
| 2026-05-06 04:45 | 34.83457 | 139.91124 | 10212 ft | 300 kts | 18° |
| 2026-05-06 04:45 | 34.85495 | 139.91425 | 10206 ft | 294 kts | 349° |
| 2026-05-06 04:46 | 34.87522 | 139.90985 | 10186 ft | 295 kts | 347° |
| 2026-05-06 04:46 | 34.89535 | 139.90565 | 10173 ft | 295 kts | 348° |
| 2026-05-06 04:46 | 34.91562 | 139.90153 | 10173 ft | 292 kts | 348° |
| 2026-05-06 04:46 | 34.93561 | 139.89751 | 10167 ft | 290 kts | 348° |
| 2026-05-06 04:47 | 34.95508 | 139.89174 | 10165 ft | 285 kts | 331° |
| 2026-05-06 04:47 | 34.97022 | 139.87717 | 10209 ft | 278 kts | 303° |
| 2026-05-06 04:47 | 34.97806 | 139.85576 | 10208 ft | 276 kts | 276° |
| 2026-05-06 04:47 | 34.97696 | 139.83302 | 10195 ft | 271 kts | 250° |
| 2026-05-06 04:48 | 34.96750 | 139.81337 | 10188 ft | 267 kts | 224° |
| 2026-05-06 04:48 | 34.95211 | 139.80119 | 10179 ft | 267 kts | 199° |
| 2026-05-06 04:48 | 34.93377 | 139.79849 | 10184 ft | 270 kts | 176° |
| 2026-05-06 04:48 | 34.91500 | 139.80193 | 10167 ft | 272 kts | 173° |
| 2026-05-06 04:49 | 34.89628 | 139.80547 | 10160 ft | 272 kts | 174° |
| 2026-05-06 04:49 | 34.87759 | 139.80907 | 10156 ft | 270 kts | 173° |
| 2026-05-06 04:49 | 34.85904 | 139.81268 | 10157 ft | 269 kts | 173° |
| 2026-05-06 04:49 | 34.84070 | 139.81654 | 10150 ft | 270 kts | 168° |
| 2026-05-06 04:50 | 34.82392 | 139.82667 | 10174 ft | 276 kts | 142° |
| 2026-05-06 04:50 | 34.81233 | 139.84534 | 10182 ft | 285 kts | 115° |
| 2026-05-06 04:50 | 34.80905 | 139.86946 | 10185 ft | 294 kts | 86° |
| 2026-05-06 04:50 | 34.81580 | 139.89287 | 10191 ft | 300 kts | 55° |
| 2026-05-06 04:51 | 34.83124 | 139.90945 | 10191 ft | 299 kts | 24° |
| 2026-05-06 04:51 | 34.85123 | 139.91464 | 10193 ft | 293 kts | 354° |
| 2026-05-06 04:51 | 34.87130 | 139.91078 | 10175 ft | 292 kts | 347° |
| 2026-05-06 04:51 | 34.89119 | 139.90654 | 10154 ft | 293 kts | 348° |
| 2026-05-06 04:52 | 34.91148 | 139.90239 | 10157 ft | 292 kts | 348° |
| 2026-05-06 04:52 | 34.93149 | 139.89833 | 10152 ft | 291 kts | 348° |
| 2026-05-06 04:52 | 34.95137 | 139.89351 | 10143 ft | 289 kts | 337° |
| 2026-05-06 04:52 | 34.96786 | 139.88055 | 10185 ft | 280 kts | 308° |
| 2026-05-06 04:53 | 34.97716 | 139.86034 | 10187 ft | 276 kts | 281° |
| 2026-05-06 04:53 | 34.97774 | 139.83728 | 10182 ft | 270 kts | 255° |
| 2026-05-06 04:53 | 34.96986 | 139.81702 | 10177 ft | 266 kts | 229° |
| 2026-05-06 04:53 | 34.95544 | 139.80322 | 10173 ft | 265 kts | 204° |
| 2026-05-06 04:54 | 34.93743 | 139.79860 | 10178 ft | 268 kts | 179° |
| 2026-05-06 04:54 | 34.91903 | 139.80147 | 10172 ft | 270 kts | 173° |
| 2026-05-06 04:54 | 34.90035 | 139.80499 | 10153 ft | 271 kts | 173° |
| 2026-05-06 04:54 | 34.88154 | 139.80858 | 10151 ft | 270 kts | 173° |
| 2026-05-06 04:55 | 34.86299 | 139.81220 | 10151 ft | 270 kts | 173° |
| 2026-05-06 04:55 | 34.84451 | 139.81584 | 10153 ft | 270 kts | 172° |
| 2026-05-06 04:55 | 34.82700 | 139.82413 | 10162 ft | 276 kts | 147° |
| 2026-05-06 04:55 | 34.81403 | 139.84154 | 10183 ft | 285 kts | 120° |
| 2026-05-06 04:56 | 34.80900 | 139.86500 | 10185 ft | 294 kts | 91° |
| 2026-05-06 04:56 | 34.81399 | 139.88913 | 10186 ft | 299 kts | 60° |
| 2026-05-06 04:56 | 34.82811 | 139.90726 | 10190 ft | 299 kts | 29° |
| 2026-05-06 04:56 | 34.84758 | 139.91457 | 10192 ft | 296 kts | 358° |
| 2026-05-06 04:57 | 34.86785 | 139.91153 | 10193 ft | 294 kts | 346° |
| 2026-05-06 04:57 | 34.88826 | 139.90710 | 10153 ft | 294 kts | 348° |
| 2026-05-06 04:57 | 34.90841 | 139.90300 | 10153 ft | 292 kts | 347° |
| 2026-05-06 04:57 | 34.92832 | 139.89897 | 10152 ft | 290 kts | 348° |
| 2026-05-06 04:58 | 34.94824 | 139.89464 | 10147 ft | 289 kts | 342° |
| 2026-05-06 04:58 | 34.96549 | 139.88342 | 10181 ft | 282 kts | 312° |
| 2026-05-06 04:58 | 34.97618 | 139.86409 | 10188 ft | 278 kts | 285° |
| 2026-05-06 04:58 | 34.97824 | 139.84088 | 10186 ft | 273 kts | 258° |
| 2026-05-06 04:59 | 34.97157 | 139.81990 | 10175 ft | 268 kts | 233° |
| 2026-05-06 04:59 | 34.95784 | 139.80481 | 10180 ft | 266 kts | 208° |
| 2026-05-06 04:59 | 34.94010 | 139.79878 | 10175 ft | 267 kts | 183° |
| 2026-05-06 04:59 | 34.92161 | 139.80112 | 10178 ft | 268 kts | 173° |
| 2026-05-06 05:00 | 34.90301 | 139.80467 | 10149 ft | 270 kts | 174° |
| 2026-05-06 05:00 | 34.88462 | 139.80817 | 10155 ft | 270 kts | 174° |
| 2026-05-06 05:00 | 34.86588 | 139.81180 | 10153 ft | 271 kts | 174° |
| 2026-05-06 05:00 | 34.84719 | 139.81547 | 10151 ft | 270 kts | 173° |
| 2026-05-06 05:01 | 34.82939 | 139.82251 | 10154 ft | 274 kts | 151° |
| 2026-05-06 05:01 | 34.81554 | 139.83874 | 10181 ft | 282 kts | 124° |
| 2026-05-06 05:01 | 34.80928 | 139.86124 | 10186 ft | 292 kts | 96° |
| 2026-05-06 05:01 | 34.81271 | 139.88579 | 10187 ft | 300 kts | 65° |
| 2026-05-06 05:02 | 34.82560 | 139.90520 | 10193 ft | 301 kts | 34° |
| 2026-05-06 05:02 | 34.84493 | 139.91443 | 10191 ft | 297 kts | 2° |
| 2026-05-06 05:02 | 34.86535 | 139.91220 | 10195 ft | 293 kts | 346° |
| 2026-05-06 05:02 | 34.88538 | 139.90771 | 10155 ft | 295 kts | 348° |
| 2026-05-06 05:03 | 34.90565 | 139.90358 | 10154 ft | 293 kts | 348° |
| 2026-05-06 05:03 | 34.92561 | 139.89952 | 10150 ft | 291 kts | 348° |
| 2026-05-06 05:03 | 34.94562 | 139.89539 | 10151 ft | 289 kts | 345° |
| 2026-05-06 05:03 | 34.96356 | 139.88544 | 10173 ft | 282 kts | 316° |
| 2026-05-06 05:04 | 34.97536 | 139.86687 | 10186 ft | 277 kts | 288° |
| 2026-05-06 05:04 | 34.97876 | 139.84438 | 10184 ft | 272 kts | 263° |
| 2026-05-06 05:04 | 34.97358 | 139.82281 | 10173 ft | 268 kts | 238° |
| 2026-05-06 05:04 | 34.96095 | 139.80623 | 10177 ft | 266 kts | 213° |
| 2026-05-06 05:05 | 34.94373 | 139.79822 | 10174 ft | 267 kts | 188° |
| 2026-05-06 05:05 | 34.92511 | 139.79942 | 10182 ft | 270 kts | 173° |
| 2026-05-06 05:05 | 34.90658 | 139.80299 | 10153 ft | 271 kts | 174° |
| 2026-05-06 05:05 | 34.88791 | 139.80650 | 10152 ft | 270 kts | 173° |
| 2026-05-06 05:06 | 34.86953 | 139.81006 | 10153 ft | 270 kts | 173° |
| 2026-05-06 05:06 | 34.85100 | 139.81369 | 10155 ft | 270 kts | 174° |
| 2026-05-06 05:06 | 34.83274 | 139.81929 | 10148 ft | 273 kts | 156° |
| 2026-05-06 05:06 | 34.81768 | 139.83372 | 10176 ft | 279 kts | 130° |
| 2026-05-06 05:07 | 34.80956 | 139.85506 | 10182 ft | 289 kts | 103° |
| 2026-05-06 05:07 | 34.81062 | 139.87988 | 10187 ft | 298 kts | 72° |
| 2026-05-06 05:07 | 34.82137 | 139.90100 | 10193 ft | 302 kts | 42° |
| 2026-05-06 05:07 | 34.83969 | 139.91328 | 10192 ft | 299 kts | 10° |
| 2026-05-06 05:08 | 34.86002 | 139.91345 | 10197 ft | 293 kts | 347° |
| 2026-05-06 05:08 | 34.88022 | 139.90883 | 10156 ft | 295 kts | 347° |
| 2026-05-06 05:08 | 34.90042 | 139.90466 | 10156 ft | 293 kts | 347° |
| 2026-05-06 05:08 | 34.92055 | 139.90054 | 10153 ft | 291 kts | 348° |
| 2026-05-06 05:09 | 34.94041 | 139.89655 | 10150 ft | 290 kts | 348° |
| 2026-05-06 05:09 | 34.95924 | 139.88907 | 10159 ft | 284 kts | 324° |
| 2026-05-06 05:09 | 34.97291 | 139.87234 | 10189 ft | 279 kts | 296° |
| 2026-05-06 05:09 | 34.97853 | 139.85031 | 10187 ft | 275 kts | 269° |
| 2026-05-06 05:10 | 34.97522 | 139.82773 | 10181 ft | 269 kts | 243° |
| 2026-05-06 05:10 | 34.96414 | 139.80989 | 10174 ft | 264 kts | 218° |
| 2026-05-06 05:10 | 34.94777 | 139.79993 | 10176 ft | 265 kts | 193° |
| 2026-05-06 05:10 | 34.92930 | 139.79958 | 10180 ft | 269 kts | 173° |
| 2026-05-06 05:11 | 34.91071 | 139.80324 | 10158 ft | 271 kts | 174° |
| 2026-05-06 05:11 | 34.89225 | 139.80659 | 10155 ft | 271 kts | 174° |
| 2026-05-06 05:11 | 34.87363 | 139.81014 | 10150 ft | 269 kts | 174° |
| 2026-05-06 05:11 | 34.85522 | 139.81370 | 10152 ft | 268 kts | 174° |
| 2026-05-06 05:12 | 34.83690 | 139.81812 | 10148 ft | 271 kts | 163° |
| 2026-05-06 05:12 | 34.82076 | 139.83038 | 10175 ft | 279 kts | 136° |
| 2026-05-06 05:12 | 34.81072 | 139.85082 | 10181 ft | 288 kts | 108° |
| 2026-05-06 05:12 | 34.80967 | 139.87500 | 10194 ft | 297 kts | 79° |
| 2026-05-06 05:13 | 34.81859 | 139.89751 | 10187 ft | 300 kts | 48° |
| 2026-05-06 05:13 | 34.83572 | 139.91188 | 10196 ft | 298 kts | 16° |
| 2026-05-06 05:13 | 34.85596 | 139.91419 | 10195 ft | 294 kts | 349° |
| 2026-05-06 05:13 | 34.87603 | 139.90974 | 10162 ft | 295 kts | 347° |
| 2026-05-06 05:14 | 34.89649 | 139.90547 | 10154 ft | 295 kts | 347° |
| 2026-05-06 05:14 | 34.91669 | 139.90134 | 10153 ft | 293 kts | 348° |
| 2026-05-06 05:14 | 34.93663 | 139.89731 | 10152 ft | 292 kts | 348° |
| 2026-05-06 05:14 | 34.95618 | 139.89108 | 10149 ft | 286 kts | 328° |
| 2026-05-06 05:15 | 34.97106 | 139.87582 | 10189 ft | 278 kts | 300° |
| 2026-05-06 05:15 | 34.97830 | 139.85469 | 10187 ft | 274 kts | 274° |
| 2026-05-06 05:15 | 34.97689 | 139.83183 | 10178 ft | 269 kts | 249° |
| 2026-05-06 05:15 | 34.96749 | 139.81268 | 10173 ft | 266 kts | 224° |
| 2026-05-06 05:16 | 34.95220 | 139.80054 | 10180 ft | 265 kts | 200° |
| 2026-05-06 05:16 | 34.93399 | 139.79765 | 10173 ft | 268 kts | 176° |
| 2026-05-06 05:16 | 34.91539 | 139.80106 | 10166 ft | 270 kts | 174° |
| 2026-05-06 05:16 | 34.89681 | 139.80449 | 10155 ft | 272 kts | 174° |
| 2026-05-06 05:17 | 34.87800 | 139.80809 | 10151 ft | 270 kts | 174° |
| 2026-05-06 05:17 | 34.85941 | 139.81171 | 10152 ft | 269 kts | 173° |
| 2026-05-06 05:17 | 34.84106 | 139.81552 | 10146 ft | 268 kts | 168° |
| 2026-05-06 05:17 | 34.82436 | 139.82529 | 10170 ft | 274 kts | 143° |
| 2026-05-06 05:18 | 34.81244 | 139.84375 | 10180 ft | 285 kts | 117° |
| 2026-05-06 05:18 | 34.80866 | 139.86763 | 10186 ft | 296 kts | 88° |
| 2026-05-06 05:18 | 34.81491 | 139.89157 | 10192 ft | 300 kts | 57° |
| 2026-05-06 05:18 | 34.83007 | 139.90886 | 10188 ft | 300 kts | 25° |
| 2026-05-06 05:19 | 34.84971 | 139.91479 | 10190 ft | 295 kts | 355° |
| 2026-05-06 05:19 | 34.87021 | 139.91112 | 10181 ft | 295 kts | 346° |
| 2026-05-06 05:19 | 34.89053 | 139.90671 | 10155 ft | 296 kts | 347° |
| 2026-05-06 05:19 | 34.91076 | 139.90256 | 10155 ft | 293 kts | 347° |
| 2026-05-06 05:20 | 34.93061 | 139.89853 | 10149 ft | 290 kts | 348° |
| 2026-05-06 05:20 | 34.95036 | 139.89391 | 10148 ft | 286 kts | 338° |
| 2026-05-06 05:20 | 34.96690 | 139.88168 | 10182 ft | 278 kts | 310° |
| 2026-05-06 05:20 | 34.97677 | 139.86191 | 10188 ft | 276 kts | 282° |
| 2026-05-06 05:21 | 34.97809 | 139.83878 | 10181 ft | 270 kts | 256° |
| 2026-05-06 05:21 | 34.97096 | 139.81824 | 10178 ft | 266 kts | 231° |
| 2026-05-06 05:21 | 34.95714 | 139.80368 | 10178 ft | 264 kts | 207° |
| 2026-05-06 05:21 | 34.93946 | 139.79794 | 10164 ft | 265 kts | 182° |
| 2026-05-06 05:22 | 34.92108 | 139.80045 | 10171 ft | 268 kts | 173° |
| 2026-05-06 05:22 | 34.90241 | 139.80396 | 10145 ft | 270 kts | 174° |
| 2026-05-06 05:22 | 34.88393 | 139.80747 | 10152 ft | 271 kts | 174° |
| 2026-05-06 05:22 | 34.86527 | 139.81108 | 10148 ft | 269 kts | 174° |
| 2026-05-06 05:23 | 34.84694 | 139.81467 | 10153 ft | 268 kts | 174° |
| 2026-05-06 05:23 | 34.82913 | 139.82182 | 10150 ft | 272 kts | 151° |
| 2026-05-06 05:23 | 34.80901 | 139.86044 | 10182 ft | 293 kts | 96° |
| 2026-05-06 05:24 | 34.81230 | 139.88525 | 10189 ft | 300 kts | 66° |
| 2026-05-06 05:24 | 34.82501 | 139.90482 | 10187 ft | 301 kts | 35° |
| 2026-05-06 05:24 | 34.84422 | 139.91438 | 10190 ft | 296 kts | 3° |
| 2026-05-06 05:24 | 34.86418 | 139.91261 | 10191 ft | 292 kts | 346° |
| 2026-05-06 05:25 | 34.88432 | 139.90802 | 10158 ft | 295 kts | 347° |
| 2026-05-06 05:25 | 34.90477 | 139.90379 | 10158 ft | 294 kts | 348° |
| 2026-05-06 05:25 | 34.92494 | 139.89967 | 10152 ft | 293 kts | 348° |
| 2026-05-06 05:25 | 34.94494 | 139.89557 | 10148 ft | 291 kts | 345° |
| 2026-05-06 05:26 | 34.96296 | 139.88609 | 10169 ft | 282 kts | 317° |
| 2026-05-06 05:26 | 34.97509 | 139.86780 | 10187 ft | 276 kts | 290° |
| 2026-05-06 05:26 | 34.97887 | 139.84535 | 10186 ft | 272 kts | 264° |
| 2026-05-06 05:26 | 34.97390 | 139.82335 | 10176 ft | 268 kts | 238° |
| 2026-05-06 05:27 | 34.96171 | 139.80681 | 10176 ft | 265 kts | 214° |
| 2026-05-06 05:27 | 34.94472 | 139.79843 | 10173 ft | 265 kts | 189° |
| 2026-05-06 05:27 | 34.92637 | 139.79929 | 10177 ft | 267 kts | 173° |
| 2026-05-06 05:27 | 34.90786 | 139.80284 | 10156 ft | 270 kts | 174° |
| 2026-05-06 05:28 | 34.88927 | 139.80632 | 10154 ft | 271 kts | 173° |
| 2026-05-06 05:28 | 34.87069 | 139.80991 | 10152 ft | 271 kts | 173° |
| 2026-05-06 05:28 | 34.85214 | 139.81354 | 10153 ft | 269 kts | 173° |
| 2026-05-06 05:28 | 34.83389 | 139.81876 | 10146 ft | 271 kts | 159° |
| 2026-05-06 05:29 | 34.81855 | 139.83256 | 10177 ft | 278 kts | 132° |
| 2026-05-06 05:29 | 34.80979 | 139.85381 | 10183 ft | 290 kts | 104° |
| 2026-05-06 05:29 | 34.81021 | 139.87849 | 10186 ft | 298 kts | 75° |
| 2026-05-06 05:29 | 34.82054 | 139.90016 | 10185 ft | 301 kts | 43° |
| 2026-05-06 05:30 | 34.83817 | 139.91287 | 10190 ft | 298 kts | 12° |
| 2026-05-06 05:30 | 34.85850 | 139.91380 | 10197 ft | 294 kts | 347° |
| 2026-05-06 05:30 | 34.87876 | 139.90916 | 10165 ft | 296 kts | 347° |
| 2026-05-06 05:30 | 34.89899 | 139.90497 | 10155 ft | 295 kts | 348° |
| 2026-05-06 05:31 | 34.91914 | 139.90085 | 10153 ft | 292 kts | 348° |
| 2026-05-06 05:31 | 34.93917 | 139.89681 | 10149 ft | 290 kts | 348° |
| 2026-05-06 05:31 | 34.95821 | 139.88977 | 10152 ft | 284 kts | 325° |
| 2026-05-06 05:31 | 34.97238 | 139.87340 | 10194 ft | 278 kts | 297° |
| 2026-05-06 05:32 | 34.97859 | 139.85158 | 10186 ft | 273 kts | 271° |
| 2026-05-06 05:32 | 34.97613 | 139.82939 | 10179 ft | 266 kts | 246° |
| 2026-05-06 05:32 | 34.96579 | 139.81078 | 10175 ft | 264 kts | 221° |
| 2026-05-06 05:32 | 34.94998 | 139.79971 | 10176 ft | 265 kts | 197° |
| 2026-05-06 05:33 | 34.93180 | 139.79793 | 10179 ft | 269 kts | 175° |
| 2026-05-06 05:33 | 34.91319 | 139.80141 | 10164 ft | 271 kts | 173° |
| 2026-05-06 05:33 | 34.89446 | 139.80495 | 10150 ft | 270 kts | 174° |
| 2026-05-06 05:33 | 34.87593 | 139.80852 | 10148 ft | 269 kts | 174° |
| 2026-05-06 05:34 | 34.85733 | 139.81215 | 10153 ft | 269 kts | 174° |
| 2026-05-06 05:34 | 34.83907 | 139.81618 | 10148 ft | 270 kts | 166° |
| 2026-05-06 05:34 | 34.82250 | 139.82710 | 10172 ft | 276 kts | 140° |
| 2026-05-06 05:34 | 34.81139 | 139.84641 | 10178 ft | 286 kts | 113° |
| 2026-05-06 05:35 | 34.80877 | 139.87067 | 10186 ft | 297 kts | 84° |
| 2026-05-06 05:35 | 34.81621 | 139.89415 | 10186 ft | 302 kts | 53° |
| 2026-05-06 05:35 | 34.83211 | 139.91020 | 10192 ft | 302 kts | 22° |
| 2026-05-06 05:35 | 34.85240 | 139.91472 | 10192 ft | 296 kts | 352° |
| 2026-05-06 05:36 | 34.87270 | 139.91055 | 10176 ft | 295 kts | 346° |
| 2026-05-06 05:36 | 34.89283 | 139.90625 | 10156 ft | 294 kts | 348° |
| 2026-05-06 05:36 | 34.91317 | 139.90207 | 10150 ft | 292 kts | 347° |
| 2026-05-06 05:36 | 34.93301 | 139.89806 | 10150 ft | 291 kts | 348° |
| 2026-05-06 05:37 | 34.95290 | 139.89287 | 10146 ft | 289 kts | 334° |
| 2026-05-06 05:37 | 34.96901 | 139.87915 | 10188 ft | 280 kts | 305° |
| 2026-05-06 05:37 | 34.97777 | 139.85855 | 10186 ft | 275 kts | 278° |
| 2026-05-06 05:37 | 34.97783 | 139.83563 | 10175 ft | 270 kts | 253° |
| 2026-05-06 05:38 | 34.96967 | 139.81569 | 10179 ft | 265 kts | 229° |
| 2026-05-06 05:38 | 34.95521 | 139.80219 | 10165 ft | 263 kts | 204° |
| 2026-05-06 05:38 | 34.93727 | 139.79773 | 10180 ft | 266 kts | 180° |
| 2026-05-06 05:38 | 34.91895 | 139.80057 | 10170 ft | 270 kts | 174° |
| 2026-05-06 05:39 | 34.90023 | 139.80408 | 10153 ft | 270 kts | 174° |
| 2026-05-06 05:39 | 34.88165 | 139.80762 | 10155 ft | 269 kts | 174° |
| 2026-05-06 05:39 | 34.86337 | 139.81119 | 10153 ft | 268 kts | 173° |
| 2026-05-06 05:39 | 34.84501 | 139.81480 | 10154 ft | 267 kts | 173° |
| 2026-05-06 05:40 | 34.82736 | 139.82294 | 10160 ft | 273 kts | 148° |
| 2026-05-06 05:40 | 34.81432 | 139.83978 | 10180 ft | 284 kts | 122° |
| 2026-05-06 05:40 | 34.80874 | 139.86320 | 10185 ft | 295 kts | 93° |
| 2026-05-06 05:40 | 34.81303 | 139.88744 | 10185 ft | 302 kts | 63° |
| 2026-05-06 05:41 | 34.82682 | 139.90649 | 10190 ft | 301 kts | 31° |
| 2026-05-06 05:41 | 34.84622 | 139.91470 | 10191 ft | 296 kts | 0° |
| 2026-05-06 05:41 | 34.86659 | 139.91206 | 10193 ft | 293 kts | 346° |
| 2026-05-06 05:41 | 34.88659 | 139.90756 | 10156 ft | 296 kts | 347° |
| 2026-05-06 05:42 | 34.90690 | 139.90337 | 10158 ft | 295 kts | 347° |
| 2026-05-06 05:42 | 34.92710 | 139.89925 | 10155 ft | 293 kts | 347° |
| 2026-05-06 05:42 | 34.94723 | 139.89497 | 10148 ft | 291 kts | 342° |
| 2026-05-06 05:42 | 34.96482 | 139.88422 | 10175 ft | 282 kts | 313° |
| 2026-05-06 05:43 | 34.97601 | 139.86499 | 10188 ft | 276 kts | 285° |
| 2026-05-06 05:43 | 34.97856 | 139.84241 | 10183 ft | 270 kts | 260° |
| 2026-05-06 05:43 | 34.97250 | 139.82108 | 10173 ft | 265 kts | 234° |
| 2026-05-06 05:43 | 34.95967 | 139.80566 | 10177 ft | 264 kts | 211° |
| 2026-05-06 05:44 | 34.94243 | 139.79851 | 10177 ft | 266 kts | 186° |
| 2026-05-06 05:44 | 34.92380 | 139.80020 | 10179 ft | 269 kts | 173° |
| 2026-05-06 05:44 | 34.90526 | 139.80374 | 10156 ft | 270 kts | 174° |
| 2026-05-06 05:44 | 34.88666 | 139.80724 | 10151 ft | 270 kts | 174° |
| 2026-05-06 05:45 | 34.86798 | 139.81085 | 10155 ft | 269 kts | 174° |
| 2026-05-06 05:45 | 34.84957 | 139.81445 | 10150 ft | 268 kts | 174° |
| 2026-05-06 05:45 | 34.83169 | 139.82042 | 10153 ft | 272 kts | 155° |
| 2026-05-06 05:45 | 34.81706 | 139.83534 | 10178 ft | 281 kts | 129° |
| 2026-05-06 05:46 | 34.80936 | 139.85754 | 10183 ft | 293 kts | 100° |
| 2026-05-06 05:46 | 34.81121 | 139.88203 | 10188 ft | 302 kts | 71° |
| 2026-05-06 05:46 | 34.82318 | 139.90321 | 10195 ft | 306 kts | 38° |
| 2026-05-06 05:46 | 34.84206 | 139.91415 | 10189 ft | 300 kts | 6° |
| 2026-05-06 05:47 | 34.86227 | 139.91313 | 10192 ft | 292 kts | 345° |
| 2026-05-06 05:47 | 34.88244 | 139.90845 | 10157 ft | 295 kts | 347° |
| 2026-05-06 05:47 | 34.90270 | 139.90424 | 10160 ft | 295 kts | 347° |
| 2026-05-06 05:47 | 34.92308 | 139.90007 | 10149 ft | 294 kts | 347° |
| 2026-05-06 05:48 | 34.94311 | 139.89600 | 10154 ft | 293 kts | 347° |
| 2026-05-06 05:48 | 34.96182 | 139.88710 | 10163 ft | 284 kts | 319° |
| 2026-05-06 05:48 | 34.97437 | 139.86935 | 10186 ft | 277 kts | 292° |
| 2026-05-06 05:48 | 34.97870 | 139.84701 | 10189 ft | 272 kts | 265° |
| 2026-05-06 05:49 | 34.97421 | 139.82486 | 10179 ft | 267 kts | 239° |
| 2026-05-06 05:49 | 34.96250 | 139.80812 | 10170 ft | 263 kts | 216° |
| 2026-05-06 05:49 | 34.94584 | 139.79925 | 10181 ft | 264 kts | 191° |
| 2026-05-06 05:49 | 34.92721 | 139.79965 | 10180 ft | 268 kts | 174° |
| 2026-05-06 05:50 | 34.90868 | 139.80322 | 10158 ft | 270 kts | 174° |
| 2026-05-06 05:50 | 34.89015 | 139.80669 | 10154 ft | 269 kts | 174° |
| 2026-05-06 05:50 | 34.87162 | 139.81027 | 10148 ft | 267 kts | 174° |
| 2026-05-06 05:50 | 34.85333 | 139.81384 | 10151 ft | 265 kts | 174° |
| 2026-05-06 05:51 | 34.83527 | 139.81867 | 10148 ft | 269 kts | 161° |
| 2026-05-06 05:51 | 34.81988 | 139.83145 | 10176 ft | 279 kts | 135° |
| 2026-05-06 05:51 | 34.81030 | 139.85260 | 10179 ft | 291 kts | 107° |
| 2026-05-06 05:51 | 34.81001 | 139.87697 | 10190 ft | 299 kts | 77° |
| 2026-05-06 05:52 | 34.81984 | 139.89931 | 10187 ft | 302 kts | 45° |